Darstellungsparameter: Aktuell verwendete Einstellungen:
Skalierung der Graphiken ... ?
xyx+y,   Skalierungsfaktor:      Skalierung: Modus: x, Faktor: 1
Darstellungszeitraum ... ?
Vom - - bis: - -   Zeitraum: 30.06.2014 - 05.07.2014
Min/Max/Avg-Anzeige ... ?
Zeige MMA aktuell
Zeige MMA Monat
Zeige MMA alles
Zeige --A aktuell
Zeige --A Monat
Zeige --A alles
Keine MMA-Anzeige
MMA:
Keine MMA-Graphiken
MMA-Basis: 30.06.2014 - 05.07.2014
Quicknavigation für Darstellung... ?
Tage:      1T, 2T, 3T, 5T -1T -2T -3T -5T +1T +2T +3T +5T
Wochen: 1W, 2W, 3W -1W -2W -3W +1W +2W +3W
Monate: 1M, 3M, 6M -1M -3M -6M +1M +3M +6M
Jahre:    1J, 3J, 5J, 10J -1J -3J -5J -10J +1J +3J +5J +10J
Nutze für die Darstellung ... ?
Originaldaten oder Mittelwerte auf ...
Stundenbasis Tagesbasis Wochenbasis
Monatsbasis Jahresbasis      Datenbasis: Original-Daten
Darstellen als:
Statistik (Auto) Statistik J:M      Darstellung:
Zur Graphik,    zurück zur Übersicht aller Sensoren.
 
Tabellarische Datenbersicht: ?
 
Sensor: Nr:Datum:Temp:Abs-Feuchte:Windchill:Wind:
Aussen-T/F 1 30-06-2014 01:15:00 12.3 C 10.86 g/m*3 12.3 C 0 km/h
2 30-06-2014 01:20:00 12.3 C 10.86 g/m*3 12.3 C 0 km/h
3 30-06-2014 01:25:00 12.3 C 10.86 g/m*3 12.3 C 0 km/h
4 30-06-2014 01:30:00 12.3 C 10.86 g/m*3 12.3 C 0 km/h
5 30-06-2014 02:25:00 12.8 C 10.98 g/m*3 12.8 C 0 km/h
6 30-06-2014 02:30:00 12.8 C 10.98 g/m*3 12.8 C 0 km/h
7 30-06-2014 02:35:00 12.8 C 10.98 g/m*3 12.8 C 0 km/h
8 30-06-2014 02:40:00 12.8 C 10.87 g/m*3 12.8 C 0 km/h
9 30-06-2014 02:45:00 12.8 C 10.87 g/m*3 12.8 C 0 km/h
10 30-06-2014 02:50:00 12.8 C 10.87 g/m*3 12.8 C 0 km/h
11 30-06-2014 02:55:00 12.8 C 10.87 g/m*3 12.8 C 0 km/h
12 30-06-2014 03:00:00 12.8 C 10.87 g/m*3 12.8 C 0 km/h
13 30-06-2014 03:05:00 12.8 C 10.87 g/m*3 12.8 C 0 km/h
14 30-06-2014 03:10:00 12.8 C 10.87 g/m*3 12.8 C 0 km/h
15 30-06-2014 03:15:00 12.8 C 10.87 g/m*3 12.8 C 0 km/h
16 30-06-2014 03:20:00 12.8 C 10.87 g/m*3 12.8 C 0 km/h
17 30-06-2014 03:25:00 12.8 C 10.87 g/m*3 12.8 C 0 km/h
18 30-06-2014 03:30:00 12.7 C 10.8 g/m*3 12.7 C 0 km/h
19 30-06-2014 03:35:00 12.7 C 10.8 g/m*3 12.7 C 0 km/h
20 30-06-2014 03:40:00 12.7 C 10.8 g/m*3 12.7 C 0 km/h
21 30-06-2014 03:45:00 12.7 C 10.8 g/m*3 12.7 C 0 km/h
22 30-06-2014 03:50:00 12.7 C 10.8 g/m*3 12.7 C 0 km/h
23 30-06-2014 03:55:00 12.7 C 10.8 g/m*3 12.7 C 0 km/h
24 30-06-2014 04:00:00 12.7 C 10.91 g/m*3 12.7 C 0 km/h
25 30-06-2014 04:05:00 12.7 C 10.91 g/m*3 12.7 C 0 km/h
Sensor: Nr:Datum:Temp:Abs-Feuchte:Windchill:Wind:
Aussen-T/F 26 30-06-2014 04:10:00 12.6 C 10.84 g/m*3 12.6 C 0 km/h
27 30-06-2014 04:15:00 12.6 C 10.84 g/m*3 12.6 C 0 km/h
28 30-06-2014 04:20:00 12.6 C 10.84 g/m*3 12.6 C 0 km/h
29 30-06-2014 04:25:00 12.6 C 10.84 g/m*3 12.6 C 0 km/h
30 30-06-2014 04:30:00 12.5 C 10.77 g/m*3 12.5 C 0 km/h
31 30-06-2014 04:35:00 12.5 C 10.66 g/m*3 12.5 C 0 km/h
32 30-06-2014 04:40:00 12.5 C 10.66 g/m*3 12.5 C 0 km/h
33 30-06-2014 04:45:00 12.4 C 10.6 g/m*3 12.4 C 0 km/h
34 30-06-2014 04:50:00 12.4 C 10.6 g/m*3 12.4 C 0 km/h
35 30-06-2014 04:55:00 12.3 C 10.53 g/m*3 12.3 C 0 km/h
36 30-06-2014 05:00:00 12.3 C 10.53 g/m*3 12.3 C 0 km/h
37 30-06-2014 05:05:00 12.3 C 10.64 g/m*3 12.3 C 0 km/h
38 30-06-2014 05:10:00 12.2 C 10.58 g/m*3 12.2 C 0 km/h
39 30-06-2014 05:15:00 12.1 C 10.4 g/m*3 12.1 C 0 km/h
40 30-06-2014 05:20:00 12.1 C 10.4 g/m*3 12.1 C 0 km/h
41 30-06-2014 05:25:00 11.9 C 10.27 g/m*3 11.9 C 0 km/h
42 30-06-2014 05:30:00 11.9 C 10.27 g/m*3 11.9 C 0 km/h
43 30-06-2014 05:35:00 11.8 C 10.21 g/m*3 11.8 C 0 km/h
44 30-06-2014 05:40:00 11.8 C 10.21 g/m*3 11.8 C 0 km/h
45 30-06-2014 05:45:00 11.7 C 10.15 g/m*3 11.7 C 0 km/h
46 30-06-2014 05:50:00 11.8 C 10.21 g/m*3 11.8 C 0 km/h
47 30-06-2014 05:55:00 11.8 C 10.21 g/m*3 11.8 C 0 km/h
48 30-06-2014 06:00:00 11.8 C 10.21 g/m*3 11.8 C 0 km/h
49 30-06-2014 06:05:00 11.8 C 10.21 g/m*3 11.8 C 0 km/h
50 30-06-2014 06:10:00 11.8 C 10.21 g/m*3 11.8 C 0 km/h
Sensor: Nr:Datum:Temp:Abs-Feuchte:Windchill:Wind:
Aussen-T/F 51 30-06-2014 06:15:00 11.8 C 10.31 g/m*3 11.8 C 1.6 km/h
52 30-06-2014 06:20:00 11.8 C 10.31 g/m*3 11.8 C 0 km/h
53 30-06-2014 06:25:00 11.8 C 10.31 g/m*3 11.8 C 0 km/h
54 30-06-2014 06:30:00 11.9 C 10.38 g/m*3 11.9 C 0 km/h
55 30-06-2014 06:35:00 12 C 10.44 g/m*3 12 C 0 km/h
56 30-06-2014 06:40:00 12.1 C 10.51 g/m*3 12.1 C 0 km/h
57 30-06-2014 06:45:00 12.2 C 10.58 g/m*3 12.2 C 0 km/h
58 30-06-2014 06:50:00 12.2 C 10.58 g/m*3 12.2 C 0 km/h
59 30-06-2014 06:55:00 12.3 C 10.64 g/m*3 12.3 C 3.2 km/h
60 30-06-2014 07:00:00 12.4 C 10.71 g/m*3 12.4 C 8.1 km/h
61 30-06-2014 07:05:00 12.4 C 10.71 g/m*3 12.4 C 4.8 km/h
62 30-06-2014 07:10:00 12.4 C 10.71 g/m*3 12.4 C 1.6 km/h
63 30-06-2014 07:15:00 12.4 C 10.71 g/m*3 12.4 C 3.2 km/h
64 30-06-2014 07:20:00 12.4 C 10.71 g/m*3 12.4 C 0 km/h
65 30-06-2014 07:25:00 12.5 C 10.77 g/m*3 12.5 C 1.6 km/h
66 30-06-2014 07:30:00 12.5 C 10.66 g/m*3 12.5 C 0 km/h
67 30-06-2014 07:35:00 12.5 C 10.66 g/m*3 12.5 C 0 km/h
68 30-06-2014 07:40:00 12.6 C 10.73 g/m*3 12.6 C 0 km/h
69 30-06-2014 07:45:00 12.6 C 10.84 g/m*3 12.6 C 0 km/h
70 30-06-2014 07:50:00 12.7 C 10.91 g/m*3 12.7 C 0 km/h
71 30-06-2014 07:55:00 12.9 C 11.05 g/m*3 12.9 C 1.6 km/h
72 30-06-2014 08:00:00 13.1 C 11.18 g/m*3 13.1 C 3.2 km/h
73 30-06-2014 08:05:00 13.1 C 11.07 g/m*3 13.1 C 3.2 km/h
74 30-06-2014 08:10:00 13.3 C 11.21 g/m*3 13.3 C 3.2 km/h
75 30-06-2014 08:15:00 13.5 C 11.23 g/m*3 13.5 C 0 km/h
Sensor: Nr:Datum:Temp:Abs-Feuchte:Windchill:Wind:
Aussen-T/F 76 30-06-2014 08:20:00 13.7 C 11.37 g/m*3 13.7 C 3.2 km/h
77 30-06-2014 08:25:00 13.9 C 11.27 g/m*3 13.9 C 1.6 km/h
78 30-06-2014 08:30:00 14.1 C 11.29 g/m*3 14.1 C 0 km/h
79 30-06-2014 08:35:00 14.3 C 11.3 g/m*3 14.3 C 1.6 km/h
80 30-06-2014 08:40:00 14.6 C 11.26 g/m*3 14.6 C 0 km/h
81 30-06-2014 08:45:00 14.7 C 11.08 g/m*3 14.7 C 3.2 km/h
82 30-06-2014 08:50:00 14.8 C 11.15 g/m*3 14.8 C 0 km/h
83 30-06-2014 08:55:00 14.9 C 11.47 g/m*3 14.9 C 0 km/h
84 30-06-2014 09:00:00 14.9 C 11.47 g/m*3 14.9 C 0 km/h
85 30-06-2014 09:05:00 14.8 C 11.53 g/m*3 14.8 C 0 km/h
86 30-06-2014 09:10:00 14.8 C 11.53 g/m*3 14.8 C 0 km/h
87 30-06-2014 09:15:00 14.8 C 11.53 g/m*3 14.8 C 1.6 km/h
88 30-06-2014 09:20:00 14.7 C 11.46 g/m*3 14.7 C 0 km/h
89 30-06-2014 09:25:00 14.6 C 11.51 g/m*3 14.6 C 0 km/h
90 30-06-2014 09:30:00 14.6 C 11.51 g/m*3 14.6 C 4.8 km/h
91 30-06-2014 09:35:00 14.6 C 11.51 g/m*3 14.6 C 1.6 km/h
92 30-06-2014 09:40:00 14.5 C 11.07 g/m*3 14.5 C 1.6 km/h
93 30-06-2014 09:45:00 14.7 C 11.33 g/m*3 14.7 C 3.2 km/h
94 30-06-2014 09:50:00 14.9 C 11.34 g/m*3 14.9 C 4.8 km/h
95 30-06-2014 09:55:00 15.3 C 10.71 g/m*3 15.3 C 12.9 km/h
96 30-06-2014 10:00:00 15.7 C 10.84 g/m*3 15.7 C 8.1 km/h
97 30-06-2014 10:05:00 16.1 C 10.83 g/m*3 16.1 C 6.4 km/h
98 30-06-2014 10:10:00 16.4 C 11.03 g/m*3 16.4 C 8.1 km/h
99 30-06-2014 10:15:00 16.6 C 10.59 g/m*3 16.6 C 14.5 km/h
100 30-06-2014 10:20:00 16.5 C 10.39 g/m*3 16.5 C 14.5 km/h
Sensor: Nr:Datum:Temp:Abs-Feuchte:Windchill:Wind:
Aussen-T/F 101 30-06-2014 10:25:00 16.6 C 10.59 g/m*3 16.6 C 11.3 km/h
102 30-06-2014 10:30:00 16.7 C 10.37 g/m*3 16.7 C 4.8 km/h
103 30-06-2014 10:35:00 16.9 C 11.08 g/m*3 16.9 C 4.8 km/h
104 30-06-2014 10:40:00 17 C 11 g/m*3 17 C 6.4 km/h
105 30-06-2014 10:45:00 17.1 C 10.19 g/m*3 17.1 C 11.3 km/h
106 30-06-2014 10:50:00 16.9 C 11.22 g/m*3 16.9 C 4.8 km/h
107 30-06-2014 10:55:00 16.7 C 10.23 g/m*3 16.7 C 6.4 km/h
108 30-06-2014 11:00:00 16.8 C 10.15 g/m*3 16.8 C 9.7 km/h
109 30-06-2014 11:05:00 17.1 C 9.9 g/m*3 17.1 C 4.8 km/h
110 30-06-2014 11:10:00 17.6 C 10.5 g/m*3 17.6 C 6.4 km/h
111 30-06-2014 11:15:00 17.8 C 10.78 g/m*3 17.8 C 9.7 km/h
112 30-06-2014 11:20:00 17.9 C 10.23 g/m*3 17.9 C 14.5 km/h
113 30-06-2014 11:25:00 17.4 C 10.37 g/m*3 17.4 C 16.1 km/h
114 30-06-2014 11:30:00 17.3 C 10.31 g/m*3 17.3 C 9.7 km/h
115 30-06-2014 11:35:00 17.1 C 10.77 g/m*3 17.1 C 8.1 km/h
116 30-06-2014 11:40:00 16.9 C 10.64 g/m*3 16.9 C 9.7 km/h
117 30-06-2014 11:45:00 16.7 C 10.94 g/m*3 16.7 C 3.2 km/h
118 30-06-2014 11:50:00 16.7 C 10.94 g/m*3 16.7 C 6.4 km/h
119 30-06-2014 11:55:00 17 C 10.71 g/m*3 17 C 8.1 km/h
120 30-06-2014 12:00:00 17.3 C 10.46 g/m*3 17.3 C 4.8 km/h
121 30-06-2014 12:05:00 17.3 C 10.16 g/m*3 17.3 C 9.7 km/h
122 30-06-2014 12:10:00 17.2 C 10.25 g/m*3 17.2 C 9.7 km/h
123 30-06-2014 12:15:00 17.1 C 10.34 g/m*3 17.1 C 16.1 km/h
124 30-06-2014 12:20:00 16.9 C 11.36 g/m*3 16.9 C 4.8 km/h
125 30-06-2014 12:25:00 17 C 11.58 g/m*3 17 C 3.2 km/h
Sensor: Nr:Datum:Temp:Abs-Feuchte:Windchill:Wind:
Aussen-T/F 126 30-06-2014 12:30:00 17.3 C 10.75 g/m*3 17.3 C 3.2 km/h
127 30-06-2014 12:35:00 17.8 C 11.08 g/m*3 17.8 C 4.8 km/h
128 30-06-2014 12:40:00 18.3 C 10.16 g/m*3 18.3 C 6.4 km/h
129 30-06-2014 12:45:00 18.7 C 11.37 g/m*3 18.7 C 1.6 km/h
130 30-06-2014 12:50:00 19.1 C 9.67 g/m*3 19.1 C 16.1 km/h
131 30-06-2014 12:55:00 19.2 C 9.73 g/m*3 19.2 C 11.3 km/h
132 30-06-2014 13:00:00 19.4 C 9.18 g/m*3 19.4 C 14.5 km/h
133 30-06-2014 13:05:00 19.7 C 9.17 g/m*3 19.7 C 12.9 km/h
134 30-06-2014 13:10:00 19.9 C 9.28 g/m*3 19.9 C 12.9 km/h
135 30-06-2014 13:15:00 20.2 C 9.79 g/m*3 20.2 C 14.5 km/h
136 30-06-2014 13:20:00 20.4 C 9.2 g/m*3 20.4 C 17.7 km/h
137 30-06-2014 13:25:00 20.6 C 9.49 g/m*3 20.6 C 17.7 km/h
138 30-06-2014 13:30:00 20.6 C 9.84 g/m*3 20.6 C 16.1 km/h
139 30-06-2014 13:35:00 20.2 C 9.62 g/m*3 20.2 C 9.7 km/h
140 30-06-2014 13:40:00 20 C 10.2 g/m*3 20 C 9.7 km/h
141 30-06-2014 13:45:00 20.1 C 9.56 g/m*3 20.1 C 12.9 km/h
142 30-06-2014 13:50:00 20.1 C 9.56 g/m*3 20.1 C 14.5 km/h
143 30-06-2014 13:55:00 20.4 C 9.73 g/m*3 20.4 C 16.1 km/h
144 30-06-2014 14:00:00 20.8 C 8.87 g/m*3 20.8 C 11.3 km/h
145 30-06-2014 14:05:00 21.2 C 8.9 g/m*3 21.2 C 11.3 km/h
146 30-06-2014 14:10:00 21.1 C 8.29 g/m*3 21.1 C 11.3 km/h
147 30-06-2014 14:15:00 20.8 C 8.33 g/m*3 20.8 C 16.1 km/h
148 30-06-2014 14:20:00 20.6 C 8.59 g/m*3 20.6 C 11.3 km/h
149 30-06-2014 14:25:00 20.6 C 8.59 g/m*3 20.6 C 12.9 km/h
150 30-06-2014 14:30:00 20.4 C 8.49 g/m*3 20.4 C 14.5 km/h
Sensor: Nr:Datum:Temp:Abs-Feuchte:Windchill:Wind:
Aussen-T/F 151 30-06-2014 14:35:00 20.1 C 8.87 g/m*3 20.1 C 11.3 km/h
152 30-06-2014 14:40:00 19.9 C 8.08 g/m*3 19.9 C 8.1 km/h
153 30-06-2014 14:45:00 19.9 C 8.93 g/m*3 19.9 C 9.7 km/h
154 30-06-2014 14:50:00 20.1 C 8.87 g/m*3 20.1 C 12.9 km/h
155 30-06-2014 14:55:00 20.8 C 9.42 g/m*3 20.8 C 12.9 km/h
156 30-06-2014 15:00:00 21.5 C 9.81 g/m*3 21.5 C 12.9 km/h
157 30-06-2014 15:05:00 21.8 C 9.59 g/m*3 21.8 C 16.1 km/h
158 30-06-2014 15:10:00 22.1 C 9.17 g/m*3 22.1 C 17.7 km/h
159 30-06-2014 15:15:00 22.1 C 9.17 g/m*3 22.1 C 20.9 km/h
160 30-06-2014 15:20:00 22 C 8.93 g/m*3 22 C 12.9 km/h
161 30-06-2014 15:25:00 21.4 C 8.44 g/m*3 21.4 C 12.9 km/h
162 30-06-2014 15:30:00 20.9 C 8.56 g/m*3 20.9 C 9.7 km/h
163 30-06-2014 15:35:00 20.8 C 9.23 g/m*3 20.8 C 17.7 km/h
164 30-06-2014 15:40:00 21 C 8.79 g/m*3 21 C 16.1 km/h
165 30-06-2014 15:45:00 20.7 C 8.82 g/m*3 20.7 C 22.5 km/h
166 30-06-2014 15:50:00 20.2 C 9.27 g/m*3 20.2 C 14.5 km/h
167 30-06-2014 15:55:00 19.9 C 9.79 g/m*3 19.9 C 14.5 km/h
168 30-06-2014 16:00:00 19.9 C 9.62 g/m*3 19.9 C 12.9 km/h
169 30-06-2014 16:05:00 19.9 C 9.45 g/m*3 19.9 C 9.7 km/h
170 30-06-2014 16:10:00 20.5 C 9.96 g/m*3 20.5 C 12.9 km/h
171 30-06-2014 16:15:00 21.1 C 9.4 g/m*3 21.1 C 14.5 km/h
172 30-06-2014 16:20:00 20.6 C 9.13 g/m*3 20.6 C 17.7 km/h
173 30-06-2014 16:25:00 19.9 C 9.28 g/m*3 19.9 C 14.5 km/h
174 30-06-2014 16:30:00 19.7 C 9.68 g/m*3 19.7 C 9.7 km/h
175 30-06-2014 16:35:00 19.6 C 9.62 g/m*3 19.6 C 17.7 km/h
Sensor: Nr:Datum:Temp:Abs-Feuchte:Windchill:Wind:
Aussen-T/F 176 30-06-2014 16:40:00 19.6 C 9.45 g/m*3 19.6 C 17.7 km/h
177 30-06-2014 16:45:00 19.7 C 9.68 g/m*3 19.7 C 17.7 km/h
178 30-06-2014 16:50:00 19.6 C 9.28 g/m*3 19.6 C 17.7 km/h
179 30-06-2014 16:55:00 19.5 C 9.23 g/m*3 19.5 C 17.7 km/h
180 30-06-2014 17:00:00 19.7 C 8.66 g/m*3 19.7 C 12.9 km/h
181 30-06-2014 17:05:00 19.6 C 9.12 g/m*3 19.6 C 14.5 km/h
182 30-06-2014 17:10:00 19.4 C 8.68 g/m*3 19.4 C 12.9 km/h
183 30-06-2014 17:15:00 19.3 C 8.29 g/m*3 19.3 C 12.9 km/h
184 30-06-2014 17:20:00 19.3 C 8.46 g/m*3 19.3 C 16.1 km/h
185 30-06-2014 17:25:00 19.3 C 8.79 g/m*3 19.3 C 14.5 km/h
186 30-06-2014 17:30:00 19.6 C 8.61 g/m*3 19.6 C 16.1 km/h
187 30-06-2014 17:35:00 19.6 C 8.44 g/m*3 19.6 C 8.1 km/h
188 30-06-2014 17:40:00 19.3 C 8.63 g/m*3 19.3 C 11.3 km/h
189 30-06-2014 17:45:00 19.3 C 8.46 g/m*3 19.3 C 8.1 km/h
190 30-06-2014 17:50:00 19.3 C 8.79 g/m*3 19.3 C 8.1 km/h
191 30-06-2014 17:55:00 19.8 C 8.71 g/m*3 19.8 C 9.7 km/h
192 30-06-2014 18:00:00 19.8 C 8.03 g/m*3 19.8 C 14.5 km/h
193 30-06-2014 18:05:00 20 C 8.99 g/m*3 20 C 11.3 km/h
194 30-06-2014 18:10:00 20.6 C 9.31 g/m*3 20.6 C 12.9 km/h
195 30-06-2014 18:15:00 20.4 C 8.67 g/m*3 20.4 C 16.1 km/h
196 30-06-2014 18:20:00 20.2 C 9.09 g/m*3 20.2 C 20.9 km/h
197 30-06-2014 18:25:00 20.3 C 8.79 g/m*3 20.3 C 17.7 km/h
198 30-06-2014 18:30:00 20.1 C 8.87 g/m*3 20.1 C 12.9 km/h
199 30-06-2014 18:35:00 19.7 C 8.32 g/m*3 19.7 C 11.3 km/h
200 30-06-2014 18:40:00 19.2 C 7.91 g/m*3 19.2 C 11.3 km/h
Sensor: Nr:Datum:Temp:Abs-Feuchte:Windchill:Wind:
Aussen-T/F 201 30-06-2014 18:45:00 18.9 C 8.26 g/m*3 18.9 C 8.1 km/h
202 30-06-2014 18:50:00 18.8 C 8.21 g/m*3 18.8 C 8.1 km/h
203 30-06-2014 18:55:00 18.7 C 8.01 g/m*3 18.7 C 6.4 km/h
204 30-06-2014 19:00:00 18.8 C 8.86 g/m*3 18.8 C 14.5 km/h
205 30-06-2014 19:05:00 18.8 C 8.7 g/m*3 18.8 C 12.9 km/h
206 30-06-2014 19:10:00 18.9 C 8.75 g/m*3 18.9 C 11.3 km/h
207 30-06-2014 19:15:00 18.8 C 8.86 g/m*3 18.8 C 8.1 km/h
208 30-06-2014 19:20:00 18.8 C 8.86 g/m*3 18.8 C 11.3 km/h
209 30-06-2014 19:25:00 18.8 C 9.02 g/m*3 18.8 C 11.3 km/h
210 30-06-2014 19:30:00 18.7 C 8.97 g/m*3 18.7 C 9.7 km/h
211 30-06-2014 19:35:00 18.6 C 9.07 g/m*3 18.6 C 14.5 km/h
212 30-06-2014 19:40:00 18.6 C 9.07 g/m*3 18.6 C 9.7 km/h
213 30-06-2014 19:45:00 18.4 C 8.81 g/m*3 18.4 C 11.3 km/h
214 30-06-2014 19:50:00 18.4 C 8.81 g/m*3 18.4 C 8.1 km/h
215 30-06-2014 19:55:00 18.3 C 9.07 g/m*3 18.3 C 12.9 km/h
216 30-06-2014 20:00:00 18.3 C 8.91 g/m*3 18.3 C 8.1 km/h
217 30-06-2014 20:05:00 18.1 C 8.81 g/m*3 18.1 C 4.8 km/h
218 30-06-2014 20:10:00 17.9 C 9.01 g/m*3 17.9 C 9.7 km/h
219 30-06-2014 20:15:00 17.7 C 8.9 g/m*3 17.7 C 9.7 km/h
220 30-06-2014 20:20:00 17.6 C 8.85 g/m*3 17.6 C 9.7 km/h
221 30-06-2014 20:25:00 17.6 C 8.7 g/m*3 17.6 C 8.1 km/h
222 30-06-2014 20:30:00 17.5 C 8.65 g/m*3 17.5 C 6.4 km/h
223 30-06-2014 20:35:00 17.4 C 8.89 g/m*3 17.4 C 6.4 km/h
224 30-06-2014 20:40:00 17.3 C 8.69 g/m*3 17.3 C 6.4 km/h
225 30-06-2014 20:45:00 17.2 C 8.93 g/m*3 17.2 C 6.4 km/h
Sensor: Nr:Datum:Temp:Abs-Feuchte:Windchill:Wind:
Aussen-T/F 226 30-06-2014 20:50:00 17.1 C 9.46 g/m*3 17.1 C 1.6 km/h
227 30-06-2014 20:55:00 17 C 9.69 g/m*3 17 C 1.6 km/h
228 30-06-2014 21:00:00 16.7 C 9.81 g/m*3 16.7 C 1.6 km/h
229 30-06-2014 21:05:00 16.3 C 9.71 g/m*3 16.3 C 0 km/h
230 30-06-2014 21:10:00 16.1 C 10.01 g/m*3 16.1 C 3.2 km/h
231 30-06-2014 21:15:00 15.8 C 9.96 g/m*3 15.8 C 0 km/h
232 30-06-2014 21:20:00 15.6 C 9.97 g/m*3 15.6 C 0 km/h
233 30-06-2014 21:25:00 15.3 C 10.19 g/m*3 15.3 C 0 km/h
234 30-06-2014 21:30:00 15.2 C 10.25 g/m*3 15.2 C 0 km/h
235 30-06-2014 21:35:00 15 C 10.13 g/m*3 15 C 0 km/h
236 30-06-2014 21:40:00 14.8 C 10.01 g/m*3 14.8 C 0 km/h
237 30-06-2014 21:45:00 14.6 C 10.01 g/m*3 14.6 C 0 km/h
238 30-06-2014 21:50:00 14.5 C 10.2 g/m*3 14.5 C 0 km/h
239 30-06-2014 21:55:00 14.3 C 10.07 g/m*3 14.3 C 0 km/h
240 30-06-2014 22:00:00 14.2 C 9.89 g/m*3 14.2 C 0 km/h
241 30-06-2014 22:05:00 14.1 C 9.95 g/m*3 14.1 C 1.6 km/h
242 30-06-2014 22:10:00 13.9 C 9.95 g/m*3 13.9 C 1.6 km/h
243 30-06-2014 22:15:00 13.7 C 9.71 g/m*3 13.7 C 1.6 km/h
244 30-06-2014 22:20:00 13.5 C 9.71 g/m*3 13.5 C 1.6 km/h
245 30-06-2014 22:25:00 13.3 C 9.47 g/m*3 13.3 C 1.6 km/h
246 30-06-2014 22:30:00 13.2 C 9.42 g/m*3 13.2 C 1.6 km/h
247 30-06-2014 22:35:00 13.1 C 9.36 g/m*3 13.1 C 0 km/h
248 30-06-2014 22:40:00 13.1 C 9.47 g/m*3 13.1 C 0 km/h
249 30-06-2014 22:45:00 12.9 C 9.58 g/m*3 12.9 C 1.6 km/h
250 30-06-2014 22:50:00 12.8 C 9.41 g/m*3 12.8 C 0 km/h
Sensor: Nr:Datum:Temp:Abs-Feuchte:Windchill:Wind:
Aussen-T/F 251 30-06-2014 22:55:00 12.8 C 9.3 g/m*3 12.8 C 0 km/h
252 30-06-2014 23:00:00 12.7 C 9.35 g/m*3 12.7 C 0 km/h
253 30-06-2014 23:05:00 12.6 C 9.29 g/m*3 12.6 C 1.6 km/h
254 30-06-2014 23:10:00 12.6 C 9.29 g/m*3 12.6 C 0 km/h
255 30-06-2014 23:15:00 12.5 C 9.35 g/m*3 12.5 C 0 km/h
256 30-06-2014 23:20:00 12.4 C 9.18 g/m*3 12.4 C 0 km/h
257 30-06-2014 23:25:00 12.3 C 9.23 g/m*3 12.3 C 0 km/h
258 30-06-2014 23:30:00 12.2 C 9.28 g/m*3 12.2 C 0 km/h
259 30-06-2014 23:35:00 12.1 C 9.22 g/m*3 12.1 C 0 km/h
260 30-06-2014 23:40:00 11.9 C 9.21 g/m*3 11.9 C 0 km/h
261 30-06-2014 23:45:00 11.9 C 9.21 g/m*3 11.9 C 0 km/h
262 30-06-2014 23:50:00 11.8 C 9.16 g/m*3 11.8 C 0 km/h
263 30-06-2014 23:55:00 11.7 C 9.1 g/m*3 11.7 C 0 km/h
264 01-07-2014 00:00:00 11.6 C 9.15 g/m*3 11.6 C 0 km/h
265 01-07-2014 00:05:00 11.4 C 9.03 g/m*3 11.4 C 0 km/h
266 01-07-2014 00:10:00 11.3 C 8.98 g/m*3 11.3 C 0 km/h
267 01-07-2014 00:15:00 11.3 C 9.08 g/m*3 11.3 C 0 km/h
268 01-07-2014 00:20:00 11.2 C 9.12 g/m*3 11.2 C 0 km/h
269 01-07-2014 00:25:00 11.2 C 9.12 g/m*3 11.2 C 0 km/h
270 01-07-2014 00:30:00 11.2 C 9.02 g/m*3 11.2 C 0 km/h
271 01-07-2014 00:35:00 11.1 C 8.86 g/m*3 11.1 C 1.6 km/h
272 01-07-2014 00:40:00 11.1 C 8.86 g/m*3 11.1 C 0 km/h
273 01-07-2014 00:45:00 10.9 C 8.75 g/m*3 10.9 C 0 km/h
274 01-07-2014 00:50:00 10.8 C 8.8 g/m*3 10.8 C 0 km/h
275 01-07-2014 00:55:00 10.7 C 8.74 g/m*3 10.7 C 0 km/h
Sensor: Nr:Datum:Temp:Abs-Feuchte:Windchill:Wind:
Aussen-T/F 276 01-07-2014 01:00:00 10.6 C 8.78 g/m*3 10.6 C 0 km/h
277 01-07-2014 01:05:00 10.5 C 8.73 g/m*3 10.5 C 0 km/h
278 01-07-2014 01:10:00 10.4 C 8.67 g/m*3 10.4 C 0 km/h
279 01-07-2014 01:15:00 10.4 C 8.67 g/m*3 10.4 C 0 km/h
280 01-07-2014 01:20:00 10.3 C 8.62 g/m*3 10.3 C 0 km/h
281 01-07-2014 01:25:00 10.3 C 8.62 g/m*3 10.3 C 0 km/h
282 01-07-2014 01:30:00 10.3 C 8.71 g/m*3 10.3 C 0 km/h
283 01-07-2014 01:35:00 10.2 C 8.66 g/m*3 10.2 C 0 km/h
284 01-07-2014 01:40:00 10.2 C 8.66 g/m*3 10.2 C 0 km/h
285 01-07-2014 01:45:00 10.2 C 8.66 g/m*3 10.2 C 0 km/h
286 01-07-2014 01:50:00 10.2 C 8.66 g/m*3 10.2 C 0 km/h
287 01-07-2014 01:55:00 10.1 C 8.7 g/m*3 10.1 C 0 km/h
288 01-07-2014 02:00:00 10.1 C 8.7 g/m*3 10.1 C 0 km/h
289 01-07-2014 02:05:00 10.1 C 8.61 g/m*3 10.1 C 1.6 km/h
290 01-07-2014 02:10:00 10 C 8.55 g/m*3 10 C 0 km/h
291 01-07-2014 02:15:00 9.9 C 8.5 g/m*3 9.9 C 0 km/h
292 01-07-2014 02:20:00 9.8 C 8.54 g/m*3 9.8 C 0 km/h
293 01-07-2014 02:25:00 9.8 C 8.54 g/m*3 9.8 C 0 km/h
294 01-07-2014 02:30:00 9.7 C 8.48 g/m*3 9.7 C 0 km/h
295 01-07-2014 02:35:00 9.7 C 8.48 g/m*3 9.7 C 1.6 km/h
296 01-07-2014 02:40:00 9.7 C 8.48 g/m*3 9.7 C 0 km/h
297 01-07-2014 02:45:00 9.7 C 8.57 g/m*3 9.7 C 0 km/h
298 01-07-2014 02:50:00 9.7 C 8.57 g/m*3 9.7 C 0 km/h
299 01-07-2014 02:55:00 9.7 C 8.57 g/m*3 9.7 C 0 km/h
300 01-07-2014 03:00:00 9.6 C 8.52 g/m*3 9.6 C 0 km/h
Sensor: Nr:Datum:Temp:Abs-Feuchte:Windchill:Wind:
Aussen-T/F 301 01-07-2014 03:05:00 9.6 C 8.52 g/m*3 9.6 C 1.6 km/h
302 01-07-2014 03:10:00 9.6 C 8.52 g/m*3 9.6 C 0 km/h
303 01-07-2014 03:15:00 9.5 C 8.47 g/m*3 9.5 C 0 km/h
304 01-07-2014 03:20:00 9.4 C 8.41 g/m*3 9.4 C 0 km/h
305 01-07-2014 03:25:00 9.4 C 8.41 g/m*3 9.4 C 0 km/h
306 01-07-2014 03:30:00 9.3 C 8.36 g/m*3 9.3 C 0 km/h
307 01-07-2014 03:35:00 9.3 C 8.36 g/m*3 9.3 C 0 km/h
308 01-07-2014 03:40:00 9.2 C 8.3 g/m*3 9.2 C 0 km/h
309 01-07-2014 03:45:00 9.2 C 8.3 g/m*3 9.2 C 0 km/h
310 01-07-2014 03:50:00 9.1 C 8.25 g/m*3 9.1 C 0 km/h
311 01-07-2014 03:55:00 9.1 C 8.25 g/m*3 9.1 C 0 km/h
312 01-07-2014 04:00:00 9 C 8.29 g/m*3 9 C 0 km/h
313 01-07-2014 04:05:00 9.1 C 8.34 g/m*3 9.1 C 0 km/h
314 01-07-2014 04:10:00 9.1 C 8.34 g/m*3 9.1 C 0 km/h
315 01-07-2014 04:15:00 9.1 C 8.34 g/m*3 9.1 C 0 km/h
316 01-07-2014 04:20:00 9 C 8.29 g/m*3 9 C 0 km/h
317 01-07-2014 04:25:00 9 C 8.29 g/m*3 9 C 0 km/h
318 01-07-2014 04:30:00 9 C 8.29 g/m*3 9 C 0 km/h
319 01-07-2014 04:35:00 8.9 C 8.23 g/m*3 8.9 C 0 km/h
320 01-07-2014 04:40:00 8.9 C 8.23 g/m*3 8.9 C 0 km/h
321 01-07-2014 04:45:00 8.8 C 8.18 g/m*3 8.8 C 0 km/h
322 01-07-2014 04:50:00 8.8 C 8.18 g/m*3 8.8 C 0 km/h
323 01-07-2014 04:55:00 8.8 C 8.18 g/m*3 8.8 C 0 km/h
324 01-07-2014 05:00:00 8.7 C 8.13 g/m*3 8.7 C 0 km/h
325 01-07-2014 05:05:00 8.7 C 8.22 g/m*3 8.7 C 0 km/h
Sensor: Nr:Datum:Temp:Abs-Feuchte:Windchill:Wind:
Aussen-T/F 326 01-07-2014 05:10:00 8.7 C 8.22 g/m*3 8.7 C 0 km/h
327 01-07-2014 05:15:00 8.7 C 8.22 g/m*3 8.7 C 0 km/h
328 01-07-2014 05:20:00 8.7 C 8.22 g/m*3 8.7 C 0 km/h
329 01-07-2014 05:25:00 8.8 C 8.27 g/m*3 8.8 C 0 km/h
330 01-07-2014 05:30:00 8.8 C 8.27 g/m*3 8.8 C 0 km/h
331 01-07-2014 05:35:00 8.8 C 8.27 g/m*3 8.8 C 0 km/h
332 01-07-2014 05:40:00 8.8 C 8.27 g/m*3 8.8 C 0 km/h
333 01-07-2014 05:45:00 8.8 C 8.27 g/m*3 8.8 C 0 km/h
334 01-07-2014 05:50:00 8.7 C 8.22 g/m*3 8.7 C 0 km/h
335 01-07-2014 05:55:00 8.7 C 8.22 g/m*3 8.7 C 0 km/h
336 01-07-2014 06:00:00 8.7 C 8.22 g/m*3 8.7 C 0 km/h
337 01-07-2014 06:05:00 8.7 C 8.22 g/m*3 8.7 C 0 km/h
338 01-07-2014 06:10:00 8.7 C 8.22 g/m*3 8.7 C 0 km/h
339 01-07-2014 06:15:00 8.7 C 8.22 g/m*3 8.7 C 0 km/h
340 01-07-2014 06:20:00 8.8 C 8.27 g/m*3 8.8 C 0 km/h
341 01-07-2014 06:25:00 8.8 C 8.27 g/m*3 8.8 C 0 km/h
342 01-07-2014 06:30:00 8.8 C 8.27 g/m*3 8.8 C 0 km/h
343 01-07-2014 06:35:00 8.8 C 8.27 g/m*3 8.8 C 0 km/h
344 01-07-2014 06:40:00 8.9 C 8.32 g/m*3 8.9 C 0 km/h
345 01-07-2014 06:45:00 8.9 C 8.32 g/m*3 8.9 C 0 km/h
346 01-07-2014 06:50:00 9.1 C 8.52 g/m*3 9.1 C 0 km/h
347 01-07-2014 06:55:00 9.2 C 8.57 g/m*3 9.2 C 0 km/h
348 01-07-2014 07:00:00 9.3 C 8.63 g/m*3 9.3 C 0 km/h
349 01-07-2014 07:05:00 9.4 C 8.68 g/m*3 9.4 C 0 km/h
350 01-07-2014 07:10:00 9.6 C 8.79 g/m*3 9.6 C 1.6 km/h
Sensor: Nr:Datum:Temp:Abs-Feuchte:Windchill:Wind:
Aussen-T/F 351 01-07-2014 07:15:00 9.7 C 8.85 g/m*3 9.7 C 0 km/h
352 01-07-2014 07:20:00 9.8 C 8.91 g/m*3 9.8 C 0 km/h
353 01-07-2014 07:25:00 9.8 C 8.91 g/m*3 9.8 C 1.6 km/h
354 01-07-2014 07:30:00 9.9 C 8.87 g/m*3 9.9 C 0 km/h
355 01-07-2014 07:35:00 10 C 8.93 g/m*3 10 C 0 km/h
356 01-07-2014 07:40:00 10 C 8.93 g/m*3 10 C 0 km/h
357 01-07-2014 07:45:00 10.1 C 8.98 g/m*3 10.1 C 0 km/h
358 01-07-2014 07:50:00 10.2 C 9.04 g/m*3 10.2 C 0 km/h
359 01-07-2014 07:55:00 10.3 C 9.1 g/m*3 10.3 C 0 km/h
360 01-07-2014 08:00:00 10.4 C 9.16 g/m*3 10.4 C 0 km/h
361 01-07-2014 08:05:00 10.8 C 9.39 g/m*3 10.8 C 0 km/h
362 01-07-2014 08:10:00 11.1 C 9.47 g/m*3 11.1 C 0 km/h
363 01-07-2014 08:15:00 11.4 C 9.55 g/m*3 11.4 C 0 km/h
364 01-07-2014 08:20:00 11.7 C 9.62 g/m*3 11.7 C 0 km/h
365 01-07-2014 08:25:00 11.9 C 9.64 g/m*3 11.9 C 0 km/h
366 01-07-2014 08:30:00 12.2 C 9.6 g/m*3 12.2 C 0 km/h
367 01-07-2014 08:35:00 12.4 C 9.83 g/m*3 12.4 C 0 km/h
368 01-07-2014 08:40:00 12.8 C 9.86 g/m*3 12.8 C 0 km/h
369 01-07-2014 08:45:00 13.1 C 9.93 g/m*3 13.1 C 0 km/h
370 01-07-2014 08:50:00 13.2 C 9.99 g/m*3 13.2 C 0 km/h
371 01-07-2014 08:55:00 13.6 C 10.12 g/m*3 13.6 C 0 km/h
372 01-07-2014 09:00:00 13.7 C 10.18 g/m*3 13.7 C 0 km/h
373 01-07-2014 09:05:00 14.1 C 10.32 g/m*3 14.1 C 0 km/h
374 01-07-2014 09:10:00 14.3 C 10.2 g/m*3 14.3 C 1.6 km/h
375 01-07-2014 09:15:00 14.6 C 10.14 g/m*3 14.6 C 0 km/h
Sensor: Nr:Datum:Temp:Abs-Feuchte:Windchill:Wind:
Aussen-T/F 376 01-07-2014 09:20:00 14.5 C 10.07 g/m*3 14.5 C 0 km/h
377 01-07-2014 09:25:00 14.5 C 10.32 g/m*3 14.5 C 0 km/h
378 01-07-2014 09:30:00 14.6 C 10.26 g/m*3 14.6 C 0 km/h
379 01-07-2014 09:35:00 14.5 C 10.07 g/m*3 14.5 C 3.2 km/h
380 01-07-2014 09:40:00 14.4 C 9.89 g/m*3 14.4 C 1.6 km/h
381 01-07-2014 09:45:00 14.4 C 9.77 g/m*3 14.4 C 1.6 km/h
382 01-07-2014 09:50:00 14.6 C 10.01 g/m*3 14.6 C 3.2 km/h
383 01-07-2014 09:55:00 15 C 9.87 g/m*3 15 C 3.2 km/h
384 01-07-2014 10:00:00 15.3 C 9.92 g/m*3 15.3 C 1.6 km/h
385 01-07-2014 10:05:00 15.8 C 9.96 g/m*3 15.8 C 3.2 km/h
386 01-07-2014 10:10:00 16 C 9.81 g/m*3 16 C 3.2 km/h
387 01-07-2014 10:15:00 16.3 C 9.99 g/m*3 16.3 C 3.2 km/h
388 01-07-2014 10:20:00 16.7 C 10.23 g/m*3 16.7 C 4.8 km/h
389 01-07-2014 10:25:00 16.9 C 10.07 g/m*3 16.9 C 4.8 km/h
390 01-07-2014 10:30:00 17.1 C 10.34 g/m*3 17.1 C 3.2 km/h
391 01-07-2014 10:35:00 17.3 C 10.46 g/m*3 17.3 C 3.2 km/h
392 01-07-2014 10:40:00 17.5 C 10.44 g/m*3 17.5 C 4.8 km/h
393 01-07-2014 10:45:00 17.7 C 10.11 g/m*3 17.7 C 1.6 km/h
394 01-07-2014 10:50:00 17.9 C 9.92 g/m*3 17.9 C 4.8 km/h
395 01-07-2014 10:55:00 18 C 9.98 g/m*3 18 C 3.2 km/h
396 01-07-2014 11:00:00 18.1 C 10.2 g/m*3 18.1 C 3.2 km/h
397 01-07-2014 11:05:00 18.2 C 10.1 g/m*3 18.2 C 4.8 km/h
398 01-07-2014 11:10:00 18.2 C 9.79 g/m*3 18.2 C 4.8 km/h
399 01-07-2014 11:15:00 18.4 C 10.54 g/m*3 18.4 C 1.6 km/h
400 01-07-2014 11:20:00 18.7 C 10.25 g/m*3 18.7 C 4.8 km/h
Sensor: Nr:Datum:Temp:Abs-Feuchte:Windchill:Wind:
Aussen-T/F 401 01-07-2014 11:25:00 18.9 C 10.04 g/m*3 18.9 C 9.7 km/h
402 01-07-2014 11:30:00 19.1 C 10.49 g/m*3 19.1 C 4.8 km/h
403 01-07-2014 11:35:00 19.2 C 10.22 g/m*3 19.2 C 4.8 km/h
404 01-07-2014 11:40:00 19.3 C 10.45 g/m*3 19.3 C 4.8 km/h
405 01-07-2014 11:45:00 19.4 C 10.18 g/m*3 19.4 C 8.1 km/h
406 01-07-2014 11:50:00 19.6 C 10.3 g/m*3 19.6 C 6.4 km/h
407 01-07-2014 11:55:00 19.7 C 10.53 g/m*3 19.7 C 4.8 km/h
408 01-07-2014 12:00:00 19.7 C 10.02 g/m*3 19.7 C 8.1 km/h
409 01-07-2014 12:05:00 19.7 C 9.85 g/m*3 19.7 C 6.4 km/h
410 01-07-2014 12:10:00 19.9 C 10.14 g/m*3 19.9 C 6.4 km/h
411 01-07-2014 12:15:00 20.1 C 10.6 g/m*3 20.1 C 4.8 km/h
412 01-07-2014 12:20:00 20.3 C 10.38 g/m*3 20.3 C 6.4 km/h
413 01-07-2014 12:25:00 20.3 C 10.02 g/m*3 20.3 C 12.9 km/h
414 01-07-2014 12:30:00 20.2 C 9.79 g/m*3 20.2 C 4.8 km/h
415 01-07-2014 12:35:00 20.3 C 10.2 g/m*3 20.3 C 6.4 km/h
416 01-07-2014 12:40:00 20.2 C 10.32 g/m*3 20.2 C 4.8 km/h
417 01-07-2014 12:45:00 20.4 C 10.08 g/m*3 20.4 C 9.7 km/h
418 01-07-2014 12:50:00 20.6 C 9.84 g/m*3 20.6 C 8.1 km/h
419 01-07-2014 12:55:00 20.7 C 9.36 g/m*3 20.7 C 9.7 km/h
420 01-07-2014 13:00:00 20.8 C 9.6 g/m*3 20.8 C 8.1 km/h
421 01-07-2014 13:05:00 21 C 9.89 g/m*3 21 C 6.4 km/h
422 01-07-2014 13:10:00 21.1 C 9.21 g/m*3 21.1 C 8.1 km/h
423 01-07-2014 13:15:00 21.3 C 9.88 g/m*3 21.3 C 8.1 km/h
424 01-07-2014 13:20:00 21.2 C 9.45 g/m*3 21.2 C 8.1 km/h
425 01-07-2014 13:25:00 20.7 C 9.18 g/m*3 20.7 C 11.3 km/h
Sensor: Nr:Datum:Temp:Abs-Feuchte:Windchill:Wind:
Aussen-T/F 426 01-07-2014 13:30:00 20.4 C 10.44 g/m*3 20.4 C 1.6 km/h
427 01-07-2014 13:35:00 20.2 C 10.14 g/m*3 20.2 C 4.8 km/h
428 01-07-2014 13:40:00 20.3 C 9.67 g/m*3 20.3 C 4.8 km/h
429 01-07-2014 13:45:00 21.1 C 9.77 g/m*3 21.1 C 6.4 km/h
430 01-07-2014 13:50:00 21.7 C 9.54 g/m*3 21.7 C 3.2 km/h
431 01-07-2014 13:55:00 21.7 C 9.54 g/m*3 21.7 C 6.4 km/h
432 01-07-2014 14:00:00 21.7 C 9.16 g/m*3 21.7 C 8.1 km/h
433 01-07-2014 14:05:00 21.5 C 8.86 g/m*3 21.5 C 6.4 km/h
434 01-07-2014 14:10:00 21.1 C 9.03 g/m*3 21.1 C 4.8 km/h
435 01-07-2014 14:15:00 20.9 C 9.47 g/m*3 20.9 C 8.1 km/h
436 01-07-2014 14:20:00 20.9 C 8.92 g/m*3 20.9 C 3.2 km/h
437 01-07-2014 14:25:00 21.3 C 9.51 g/m*3 21.3 C 8.1 km/h
438 01-07-2014 14:30:00 21.7 C 9.16 g/m*3 21.7 C 3.2 km/h
439 01-07-2014 14:35:00 22.1 C 9.37 g/m*3 22.1 C 11.3 km/h
440 01-07-2014 14:40:00 21.9 C 8.68 g/m*3 21.9 C 6.4 km/h
441 01-07-2014 14:45:00 21.4 C 9.56 g/m*3 21.4 C 3.2 km/h
442 01-07-2014 14:50:00 21.3 C 9.13 g/m*3 21.3 C 6.4 km/h
443 01-07-2014 14:55:00 21.7 C 9.35 g/m*3 21.7 C 8.1 km/h
444 01-07-2014 15:00:00 22.2 C 8.83 g/m*3 22.2 C 14.5 km/h
445 01-07-2014 15:05:00 22.6 C 9.04 g/m*3 22.6 C 4.8 km/h
446 01-07-2014 15:10:00 22.7 C 8.89 g/m*3 22.7 C 8.1 km/h
447 01-07-2014 15:15:00 22.9 C 8.79 g/m*3 22.9 C 11.3 km/h
448 01-07-2014 15:20:00 23.1 C 8.48 g/m*3 23.1 C 11.3 km/h
449 01-07-2014 15:25:00 22.7 C 8.49 g/m*3 22.7 C 8.1 km/h
450 01-07-2014 15:30:00 22.2 C 8.05 g/m*3 22.2 C 4.8 km/h
Sensor: Nr:Datum:Temp:Abs-Feuchte:Windchill:Wind:
Aussen-T/F 451 01-07-2014 15:35:00 21.9 C 7.72 g/m*3 21.9 C 4.8 km/h
452 01-07-2014 15:40:00 21.8 C 8.06 g/m*3 21.8 C 1.6 km/h
453 01-07-2014 15:45:00 22 C 8.93 g/m*3 22 C 6.4 km/h
454 01-07-2014 15:50:00 22.2 C 8.25 g/m*3 22.2 C 12.9 km/h
455 01-07-2014 15:55:00 22.1 C 8.39 g/m*3 22.1 C 11.3 km/h
456 01-07-2014 16:00:00 21.8 C 8.06 g/m*3 21.8 C 6.4 km/h
457 01-07-2014 16:05:00 21.6 C 8.53 g/m*3 21.6 C 6.4 km/h
458 01-07-2014 16:10:00 21.3 C 8.02 g/m*3 21.3 C 6.4 km/h
459 01-07-2014 16:15:00 21.2 C 8.34 g/m*3 21.2 C 8.1 km/h
460 01-07-2014 16:20:00 21.3 C 8.57 g/m*3 21.3 C 11.3 km/h
461 01-07-2014 16:25:00 21.6 C 8.16 g/m*3 21.6 C 6.4 km/h
462 01-07-2014 16:30:00 21.4 C 8.81 g/m*3 21.4 C 8.1 km/h
463 01-07-2014 16:35:00 21.2 C 8.52 g/m*3 21.2 C 4.8 km/h
464 01-07-2014 16:40:00 21.1 C 8.48 g/m*3 21.1 C 9.7 km/h
465 01-07-2014 16:45:00 21.1 C 8.29 g/m*3 21.1 C 6.4 km/h
466 01-07-2014 16:50:00 21.1 C 8.29 g/m*3 21.1 C 6.4 km/h
467 01-07-2014 16:55:00 21.1 C 8.48 g/m*3 21.1 C 9.7 km/h
468 01-07-2014 17:00:00 21.1 C 8.29 g/m*3 21.1 C 6.4 km/h
469 01-07-2014 17:05:00 20.9 C 8.2 g/m*3 20.9 C 8.1 km/h
470 01-07-2014 17:10:00 20.7 C 8.28 g/m*3 20.7 C 4.8 km/h
471 01-07-2014 17:15:00 20.5 C 8.01 g/m*3 20.5 C 8.1 km/h
472 01-07-2014 17:20:00 20.5 C 8.54 g/m*3 20.5 C 8.1 km/h
473 01-07-2014 17:25:00 20.6 C 8.23 g/m*3 20.6 C 9.7 km/h
474 01-07-2014 17:30:00 20.6 C 8.41 g/m*3 20.6 C 4.8 km/h
475 01-07-2014 17:35:00 20.6 C 8.23 g/m*3 20.6 C 6.4 km/h
Sensor: Nr:Datum:Temp:Abs-Feuchte:Windchill:Wind:
Aussen-T/F 476 01-07-2014 17:40:00 20.9 C 8.56 g/m*3 20.9 C 6.4 km/h
477 01-07-2014 17:45:00 21.2 C 8.15 g/m*3 21.2 C 9.7 km/h
478 01-07-2014 17:50:00 21.1 C 8.29 g/m*3 21.1 C 8.1 km/h
479 01-07-2014 17:55:00 20.9 C 8.56 g/m*3 20.9 C 4.8 km/h
480 01-07-2014 18:00:00 20.8 C 8.33 g/m*3 20.8 C 4.8 km/h
481 01-07-2014 18:05:00 20.7 C 8.28 g/m*3 20.7 C 4.8 km/h
482 01-07-2014 18:10:00 20.8 C 8.87 g/m*3 20.8 C 3.2 km/h
483 01-07-2014 18:15:00 20.8 C 8.51 g/m*3 20.8 C 3.2 km/h
484 01-07-2014 18:20:00 20.8 C 8.33 g/m*3 20.8 C 6.4 km/h
485 01-07-2014 18:25:00 20.6 C 8.59 g/m*3 20.6 C 4.8 km/h
486 01-07-2014 18:30:00 20.7 C 8.46 g/m*3 20.7 C 4.8 km/h
487 01-07-2014 18:35:00 20.7 C 8.46 g/m*3 20.7 C 9.7 km/h
488 01-07-2014 18:40:00 20.6 C 8.23 g/m*3 20.6 C 11.3 km/h
489 01-07-2014 18:45:00 20.6 C 8.59 g/m*3 20.6 C 4.8 km/h
490 01-07-2014 18:50:00 20.8 C 8.87 g/m*3 20.8 C 8.1 km/h
491 01-07-2014 18:55:00 21.2 C 8.34 g/m*3 21.2 C 8.1 km/h
492 01-07-2014 19:00:00 21.6 C 8.91 g/m*3 21.6 C 4.8 km/h
493 01-07-2014 19:05:00 21.8 C 8.63 g/m*3 21.8 C 6.4 km/h
494 01-07-2014 19:10:00 22.1 C 8.78 g/m*3 22.1 C 4.8 km/h
495 01-07-2014 19:15:00 22.2 C 8.83 g/m*3 22.2 C 9.7 km/h
496 01-07-2014 19:20:00 21.9 C 8.68 g/m*3 21.9 C 8.1 km/h
497 01-07-2014 19:25:00 21.7 C 8.39 g/m*3 21.7 C 8.1 km/h
498 01-07-2014 19:30:00 21.4 C 8.06 g/m*3 21.4 C 8.1 km/h
499 01-07-2014 19:35:00 21.3 C 8.2 g/m*3 21.3 C 9.7 km/h
500 01-07-2014 19:40:00 21.2 C 7.97 g/m*3 21.2 C 11.3 km/h
Sensor: Nr:Datum:Temp:Abs-Feuchte:Windchill:Wind:
Aussen-T/F 501 01-07-2014 19:45:00 21.2 C 8.15 g/m*3 21.2 C 9.7 km/h
502 01-07-2014 19:50:00 21.2 C 8.15 g/m*3 21.2 C 9.7 km/h
503 01-07-2014 19:55:00 21.1 C 8.11 g/m*3 21.1 C 11.3 km/h
504 01-07-2014 20:00:00 20.9 C 8.01 g/m*3 20.9 C 6.4 km/h
505 01-07-2014 20:05:00 20.9 C 8.38 g/m*3 20.9 C 9.7 km/h
506 01-07-2014 20:10:00 20.9 C 8.2 g/m*3 20.9 C 6.4 km/h
507 01-07-2014 20:15:00 20.8 C 8.15 g/m*3 20.8 C 6.4 km/h
508 01-07-2014 20:20:00 20.6 C 7.87 g/m*3 20.6 C 8.1 km/h
509 01-07-2014 20:25:00 20.6 C 8.23 g/m*3 20.6 C 4.8 km/h
510 01-07-2014 20:30:00 20.5 C 8.36 g/m*3 20.5 C 4.8 km/h
511 01-07-2014 20:35:00 20.5 C 8.19 g/m*3 20.5 C 6.4 km/h
512 01-07-2014 20:40:00 20.4 C 7.96 g/m*3 20.4 C 4.8 km/h
513 01-07-2014 20:45:00 20.3 C 8.27 g/m*3 20.3 C 4.8 km/h
514 01-07-2014 20:50:00 20.1 C 8.17 g/m*3 20.1 C 8.1 km/h
515 01-07-2014 20:55:00 20 C 8.12 g/m*3 20 C 6.4 km/h
516 01-07-2014 21:00:00 19.9 C 8.08 g/m*3 19.9 C 6.4 km/h
517 01-07-2014 21:05:00 19.7 C 8.15 g/m*3 19.7 C 6.4 km/h
518 01-07-2014 21:10:00 19.6 C 8.61 g/m*3 19.6 C 3.2 km/h
519 01-07-2014 21:15:00 19.3 C 8.29 g/m*3 19.3 C 3.2 km/h
520 01-07-2014 21:20:00 18.9 C 9.23 g/m*3 18.9 C 1.6 km/h
521 01-07-2014 21:25:00 18.3 C 9.07 g/m*3 18.3 C 1.6 km/h
522 01-07-2014 21:30:00 17.7 C 9.05 g/m*3 17.7 C 0 km/h
523 01-07-2014 21:35:00 17.3 C 8.84 g/m*3 17.3 C 3.2 km/h
524 01-07-2014 21:40:00 16.9 C 8.92 g/m*3 16.9 C 0 km/h
525 01-07-2014 21:45:00 16.5 C 8.85 g/m*3 16.5 C 0 km/h
Sensor: Nr:Datum:Temp:Abs-Feuchte:Windchill:Wind:
Aussen-T/F 526 01-07-2014 21:50:00 16.2 C 9.38 g/m*3 16.2 C 1.6 km/h
527 01-07-2014 21:55:00 16 C 9.54 g/m*3 16 C 0 km/h
528 01-07-2014 22:00:00 15.8 C 9.69 g/m*3 15.8 C 0 km/h
529 01-07-2014 22:05:00 15.5 C 9.39 g/m*3 15.5 C 1.6 km/h
530 01-07-2014 22:10:00 15.3 C 9.27 g/m*3 15.3 C 1.6 km/h
531 01-07-2014 22:15:00 15.1 C 9.16 g/m*3 15.1 C 3.2 km/h
532 01-07-2014 22:20:00 14.8 C 9.25 g/m*3 14.8 C 3.2 km/h
533 01-07-2014 22:25:00 14.7 C 9.07 g/m*3 14.7 C 0 km/h
534 01-07-2014 22:30:00 14.6 C 9.13 g/m*3 14.6 C 3.2 km/h
535 01-07-2014 22:35:00 14.4 C 9.02 g/m*3 14.4 C 1.6 km/h
536 01-07-2014 22:40:00 14.3 C 9.09 g/m*3 14.3 C 1.6 km/h
537 01-07-2014 22:45:00 14.2 C 9.28 g/m*3 14.2 C 0 km/h
538 01-07-2014 22:50:00 14.1 C 9.1 g/m*3 14.1 C 1.6 km/h
539 01-07-2014 22:55:00 14 C 9.05 g/m*3 14 C 1.6 km/h
540 01-07-2014 23:00:00 14 C 9.05 g/m*3 14 C 0 km/h
541 01-07-2014 23:05:00 14 C 8.93 g/m*3 14 C 1.6 km/h
542 01-07-2014 23:10:00 14 C 9.05 g/m*3 14 C 1.6 km/h
543 01-07-2014 23:15:00 13.9 C 8.99 g/m*3 13.9 C 0 km/h
544 01-07-2014 23:20:00 13.8 C 9.17 g/m*3 13.8 C 0 km/h
545 01-07-2014 23:25:00 13.7 C 9.12 g/m*3 13.7 C 0 km/h
546 01-07-2014 23:30:00 13.6 C 8.94 g/m*3 13.6 C 0 km/h
547 01-07-2014 23:35:00 13.4 C 8.83 g/m*3 13.4 C 0 km/h
548 01-07-2014 23:40:00 13.3 C 8.9 g/m*3 13.3 C 0 km/h
549 01-07-2014 23:45:00 13.3 C 9.01 g/m*3 13.3 C 0 km/h
550 01-07-2014 23:50:00 13.2 C 8.96 g/m*3 13.2 C 0 km/h
Sensor: Nr:Datum:Temp:Abs-Feuchte:Windchill:Wind:
Aussen-T/F 551 01-07-2014 23:55:00 13.1 C 8.79 g/m*3 13.1 C 0 km/h
552 02-07-2014 00:00:00 13 C 8.73 g/m*3 13 C 0 km/h
553 02-07-2014 00:05:00 13 C 8.73 g/m*3 13 C 0 km/h
554 02-07-2014 00:10:00 12.9 C 8.68 g/m*3 12.9 C 0 km/h
555 02-07-2014 00:15:00 12.8 C 8.85 g/m*3 12.8 C 0 km/h
556 02-07-2014 00:20:00 12.7 C 8.91 g/m*3 12.7 C 1.6 km/h
557 02-07-2014 00:25:00 12.6 C 8.74 g/m*3 12.6 C 0 km/h
558 02-07-2014 00:30:00 12.6 C 8.85 g/m*3 12.6 C 0 km/h
559 02-07-2014 00:35:00 12.3 C 8.69 g/m*3 12.3 C 0 km/h
560 02-07-2014 00:40:00 12.2 C 8.74 g/m*3 12.2 C 0 km/h
561 02-07-2014 00:45:00 12.1 C 8.79 g/m*3 12.1 C 0 km/h
562 02-07-2014 00:50:00 11.9 C 8.58 g/m*3 11.9 C 0 km/h
563 02-07-2014 00:55:00 11.8 C 8.63 g/m*3 11.8 C 0 km/h
564 02-07-2014 01:00:00 11.7 C 8.58 g/m*3 11.7 C 0 km/h
565 02-07-2014 01:05:00 11.5 C 8.47 g/m*3 11.5 C 0 km/h
566 02-07-2014 01:10:00 11.4 C 8.52 g/m*3 11.4 C 0 km/h
567 02-07-2014 01:15:00 11.3 C 8.47 g/m*3 11.3 C 0 km/h
568 02-07-2014 01:20:00 11.2 C 8.41 g/m*3 11.2 C 0 km/h
569 02-07-2014 01:25:00 11.1 C 8.46 g/m*3 11.1 C 0 km/h
570 02-07-2014 01:30:00 10.9 C 8.36 g/m*3 10.9 C 0 km/h
571 02-07-2014 01:35:00 10.8 C 8.4 g/m*3 10.8 C 0 km/h
572 02-07-2014 01:40:00 10.8 C 8.4 g/m*3 10.8 C 0 km/h
573 02-07-2014 01:45:00 10.7 C 8.35 g/m*3 10.7 C 0 km/h
574 02-07-2014 01:50:00 10.6 C 8.3 g/m*3 10.6 C 0 km/h
575 02-07-2014 01:55:00 10.6 C 8.3 g/m*3 10.6 C 0 km/h
Sensor: Nr:Datum:Temp:Abs-Feuchte:Windchill:Wind:
Aussen-T/F 576 02-07-2014 02:00:00 10.6 C 8.3 g/m*3 10.6 C 0 km/h
577 02-07-2014 02:05:00 10.6 C 8.3 g/m*3 10.6 C 0 km/h
578 02-07-2014 02:10:00 10.5 C 8.24 g/m*3 10.5 C 0 km/h
579 02-07-2014 02:15:00 10.5 C 8.34 g/m*3 10.5 C 0 km/h
580 02-07-2014 02:20:00 10.4 C 8.29 g/m*3 10.4 C 0 km/h
581 02-07-2014 02:25:00 10.3 C 8.24 g/m*3 10.3 C 0 km/h
582 02-07-2014 02:30:00 10.3 C 8.33 g/m*3 10.3 C 0 km/h
583 02-07-2014 02:35:00 10.2 C 8.18 g/m*3 10.2 C 0 km/h
584 02-07-2014 02:40:00 10.2 C 8.18 g/m*3 10.2 C 0 km/h
585 02-07-2014 02:45:00 10.1 C 8.13 g/m*3 10.1 C 0 km/h
586 02-07-2014 02:50:00 10.1 C 8.23 g/m*3 10.1 C 0 km/h
587 02-07-2014 02:55:00 9.9 C 8.12 g/m*3 9.9 C 0 km/h
588 02-07-2014 03:00:00 9.9 C 8.12 g/m*3 9.9 C 0 km/h
589 02-07-2014 03:05:00 9.8 C 8.16 g/m*3 9.8 C 0 km/h
590 02-07-2014 03:10:00 9.7 C 8.11 g/m*3 9.7 C 0 km/h
591 02-07-2014 03:15:00 9.7 C 8.2 g/m*3 9.7 C 0 km/h
592 02-07-2014 03:20:00 9.6 C 8.15 g/m*3 9.6 C 0 km/h
593 02-07-2014 03:25:00 9.6 C 8.15 g/m*3 9.6 C 0 km/h
594 02-07-2014 03:30:00 9.6 C 8.15 g/m*3 9.6 C 0 km/h
595 02-07-2014 03:35:00 9.5 C 8.1 g/m*3 9.5 C 0 km/h
596 02-07-2014 03:40:00 9.5 C 8.1 g/m*3 9.5 C 0 km/h
597 02-07-2014 03:45:00 9.5 C 8.1 g/m*3 9.5 C 0 km/h
598 02-07-2014 03:50:00 9.4 C 8.14 g/m*3 9.4 C 0 km/h
599 02-07-2014 03:55:00 9.3 C 8.09 g/m*3 9.3 C 0 km/h
600 02-07-2014 04:00:00 9.3 C 8.09 g/m*3 9.3 C 0 km/h
Sensor: Nr:Datum:Temp:Abs-Feuchte:Windchill:Wind:
Aussen-T/F 601 02-07-2014 04:05:00 9.3 C 8.18 g/m*3 9.3 C 0 km/h
602 02-07-2014 04:10:00 9.2 C 8.04 g/m*3 9.2 C 0 km/h
603 02-07-2014 04:15:00 9.2 C 8.13 g/m*3 9.2 C 0 km/h
604 02-07-2014 04:20:00 9.2 C 8.13 g/m*3 9.2 C 0 km/h
605 02-07-2014 04:25:00 9.1 C 8.07 g/m*3 9.1 C 0 km/h
606 02-07-2014 04:30:00 9.1 C 8.07 g/m*3 9.1 C 0 km/h
607 02-07-2014 04:35:00 9 C 8.02 g/m*3 9 C 0 km/h
608 02-07-2014 04:40:00 8.9 C 7.97 g/m*3 8.9 C 0 km/h
609 02-07-2014 04:45:00 8.9 C 8.06 g/m*3 8.9 C 0 km/h
610 02-07-2014 04:50:00 8.9 C 8.06 g/m*3 8.9 C 0 km/h
611 02-07-2014 04:55:00 8.8 C 8.01 g/m*3 8.8 C 0 km/h
612 02-07-2014 05:00:00 8.8 C 8.01 g/m*3 8.8 C 0 km/h
613 02-07-2014 05:05:00 8.8 C 8.01 g/m*3 8.8 C 0 km/h
614 02-07-2014 05:10:00 8.8 C 8.01 g/m*3 8.8 C 0 km/h
615 02-07-2014 05:15:00 8.7 C 7.96 g/m*3 8.7 C 0 km/h
616 02-07-2014 05:20:00 8.7 C 7.96 g/m*3 8.7 C 0 km/h
617 02-07-2014 05:25:00 8.7 C 7.96 g/m*3 8.7 C 0 km/h
618 02-07-2014 05:30:00 8.6 C 7.99 g/m*3 8.6 C 0 km/h
619 02-07-2014 05:35:00 8.6 C 7.99 g/m*3 8.6 C 0 km/h
620 02-07-2014 05:40:00 8.6 C 7.99 g/m*3 8.6 C 0 km/h
621 02-07-2014 05:45:00 8.6 C 7.99 g/m*3 8.6 C 0 km/h
622 02-07-2014 05:50:00 8.6 C 7.99 g/m*3 8.6 C 0 km/h
623 02-07-2014 05:55:00 8.6 C 7.99 g/m*3 8.6 C 0 km/h
624 02-07-2014 06:00:00 8.6 C 7.99 g/m*3 8.6 C 0 km/h
625 02-07-2014 06:05:00 8.6 C 7.99 g/m*3 8.6 C 0 km/h
Sensor: Nr:Datum:Temp:Abs-Feuchte:Windchill:Wind:
Aussen-T/F 626 02-07-2014 06:10:00 8.6 C 7.99 g/m*3 8.6 C 0 km/h
627 02-07-2014 06:15:00 8.6 C 7.99 g/m*3 8.6 C 0 km/h
628 02-07-2014 06:20:00 8.6 C 8.08 g/m*3 8.6 C 0 km/h
629 02-07-2014 06:25:00 8.6 C 8.08 g/m*3 8.6 C 0 km/h
630 02-07-2014 06:30:00 8.7 C 8.13 g/m*3 8.7 C 0 km/h
631 02-07-2014 06:35:00 8.7 C 8.13 g/m*3 8.7 C 0 km/h
632 02-07-2014 06:40:00 8.7 C 8.13 g/m*3 8.7 C 0 km/h
633 02-07-2014 06:45:00 8.8 C 8.18 g/m*3 8.8 C 0 km/h
634 02-07-2014 06:50:00 8.8 C 8.18 g/m*3 8.8 C 0 km/h
635 02-07-2014 06:55:00 8.9 C 8.23 g/m*3 8.9 C 0 km/h
636 02-07-2014 07:00:00 8.9 C 8.23 g/m*3 8.9 C 0 km/h
637 02-07-2014 07:05:00 9 C 8.29 g/m*3 9 C 0 km/h
638 02-07-2014 07:10:00 9.1 C 8.34 g/m*3 9.1 C 0 km/h
639 02-07-2014 07:15:00 9.2 C 8.39 g/m*3 9.2 C 0 km/h
640 02-07-2014 07:20:00 9.3 C 8.45 g/m*3 9.3 C 0 km/h
641 02-07-2014 07:25:00 9.3 C 8.45 g/m*3 9.3 C 0 km/h
642 02-07-2014 07:30:00 9.5 C 8.56 g/m*3 9.5 C 0 km/h
643 02-07-2014 07:35:00 9.6 C 8.52 g/m*3 9.6 C 1.6 km/h
644 02-07-2014 07:40:00 9.7 C 8.67 g/m*3 9.7 C 0 km/h
645 02-07-2014 07:45:00 9.8 C 8.63 g/m*3 9.8 C 0 km/h
646 02-07-2014 07:50:00 9.9 C 8.68 g/m*3 9.9 C 0 km/h
647 02-07-2014 07:55:00 10.1 C 8.79 g/m*3 10.1 C 0 km/h
648 02-07-2014 08:00:00 10.3 C 8.91 g/m*3 10.3 C 0 km/h
649 02-07-2014 08:05:00 10.7 C 9.13 g/m*3 10.7 C 0 km/h
650 02-07-2014 08:10:00 11.1 C 9.17 g/m*3 11.1 C 0 km/h
Sensor: Nr:Datum:Temp:Abs-Feuchte:Windchill:Wind:
Aussen-T/F 651 02-07-2014 08:15:00 11.5 C 9.3 g/m*3 11.5 C 0 km/h
652 02-07-2014 08:20:00 11.8 C 9.37 g/m*3 11.8 C 0 km/h
653 02-07-2014 08:25:00 12.1 C 9.44 g/m*3 12.1 C 0 km/h
654 02-07-2014 08:30:00 12.3 C 9.56 g/m*3 12.3 C 0 km/h
655 02-07-2014 08:35:00 12.8 C 9.74 g/m*3 12.8 C 0 km/h
656 02-07-2014 08:40:00 13.2 C 9.76 g/m*3 13.2 C 1.6 km/h
657 02-07-2014 08:45:00 13.6 C 9.89 g/m*3 13.6 C 3.2 km/h
658 02-07-2014 08:50:00 13.8 C 10.01 g/m*3 13.8 C 0 km/h
659 02-07-2014 08:55:00 14 C 9.89 g/m*3 14 C 0 km/h
660 02-07-2014 09:00:00 14.3 C 9.95 g/m*3 14.3 C 1.6 km/h
661 02-07-2014 09:05:00 14.4 C 9.89 g/m*3 14.4 C 0 km/h
662 02-07-2014 09:10:00 14.7 C 10.07 g/m*3 14.7 C 0 km/h
663 02-07-2014 09:15:00 14.7 C 9.95 g/m*3 14.7 C 0 km/h
664 02-07-2014 09:20:00 14.6 C 9.89 g/m*3 14.6 C 0 km/h
665 02-07-2014 09:25:00 14.4 C 9.52 g/m*3 14.4 C 1.6 km/h
666 02-07-2014 09:30:00 14.3 C 9.83 g/m*3 14.3 C 0 km/h
667 02-07-2014 09:35:00 14.3 C 9.83 g/m*3 14.3 C 1.6 km/h
668 02-07-2014 09:40:00 14.3 C 9.83 g/m*3 14.3 C 0 km/h
669 02-07-2014 09:45:00 14.4 C 9.89 g/m*3 14.4 C 3.2 km/h
670 02-07-2014 09:50:00 14.6 C 9.76 g/m*3 14.6 C 3.2 km/h
671 02-07-2014 09:55:00 14.9 C 10.2 g/m*3 14.9 C 1.6 km/h
672 02-07-2014 10:00:00 15.4 C 10.12 g/m*3 15.4 C 0 km/h
673 02-07-2014 10:05:00 15.9 C 10.02 g/m*3 15.9 C 4.8 km/h
674 02-07-2014 10:10:00 16.5 C 9.83 g/m*3 16.5 C 4.8 km/h
675 02-07-2014 10:15:00 16.9 C 9.78 g/m*3 16.9 C 3.2 km/h
Sensor: Nr:Datum:Temp:Abs-Feuchte:Windchill:Wind:
Aussen-T/F 676 02-07-2014 10:20:00 17.2 C 10.25 g/m*3 17.2 C 3.2 km/h
677 02-07-2014 10:25:00 17.5 C 10.44 g/m*3 17.5 C 1.6 km/h
678 02-07-2014 10:30:00 17.8 C 10.17 g/m*3 17.8 C 1.6 km/h
679 02-07-2014 10:35:00 18.2 C 10.26 g/m*3 18.2 C 3.2 km/h
680 02-07-2014 10:40:00 18.6 C 9.55 g/m*3 18.6 C 4.8 km/h
681 02-07-2014 10:45:00 18.9 C 10.04 g/m*3 18.9 C 4.8 km/h
682 02-07-2014 10:50:00 19.2 C 9.89 g/m*3 19.2 C 4.8 km/h
683 02-07-2014 10:55:00 19.4 C 10.01 g/m*3 19.4 C 4.8 km/h
684 02-07-2014 11:00:00 19.7 C 9.85 g/m*3 19.7 C 8.1 km/h
685 02-07-2014 11:05:00 19.8 C 9.57 g/m*3 19.8 C 6.4 km/h
686 02-07-2014 11:10:00 20 C 9.68 g/m*3 20 C 8.1 km/h
687 02-07-2014 11:15:00 20.1 C 10.08 g/m*3 20.1 C 3.2 km/h
688 02-07-2014 11:20:00 20.2 C 9.62 g/m*3 20.2 C 8.1 km/h
689 02-07-2014 11:25:00 20.3 C 9.85 g/m*3 20.3 C 6.4 km/h
690 02-07-2014 11:30:00 20.3 C 9.67 g/m*3 20.3 C 3.2 km/h
691 02-07-2014 11:35:00 20.4 C 9.55 g/m*3 20.4 C 6.4 km/h
692 02-07-2014 11:40:00 20.6 C 10.38 g/m*3 20.6 C 8.1 km/h
693 02-07-2014 11:45:00 20.7 C 10.08 g/m*3 20.7 C 8.1 km/h
694 02-07-2014 11:50:00 20.8 C 9.42 g/m*3 20.8 C 6.4 km/h
695 02-07-2014 11:55:00 20.8 C 9.78 g/m*3 20.8 C 6.4 km/h
696 02-07-2014 12:00:00 21 C 10.26 g/m*3 21 C 6.4 km/h
697 02-07-2014 12:05:00 21.3 C 9.51 g/m*3 21.3 C 8.1 km/h
698 02-07-2014 12:10:00 21.4 C 9.37 g/m*3 21.4 C 8.1 km/h
699 02-07-2014 12:15:00 21.4 C 9.37 g/m*3 21.4 C 9.7 km/h
700 02-07-2014 12:20:00 21.4 C 9.37 g/m*3 21.4 C 9.7 km/h
Sensor: Nr:Datum:Temp:Abs-Feuchte:Windchill:Wind:
Aussen-T/F 701 02-07-2014 12:25:00 21.5 C 9.62 g/m*3 21.5 C 4.8 km/h
702 02-07-2014 12:30:00 21.8 C 9.98 g/m*3 21.8 C 9.7 km/h
703 02-07-2014 12:35:00 22.1 C 9.56 g/m*3 22.1 C 9.7 km/h
704 02-07-2014 12:40:00 21.8 C 9.02 g/m*3 21.8 C 4.8 km/h
705 02-07-2014 12:45:00 21.6 C 9.48 g/m*3 21.6 C 4.8 km/h
706 02-07-2014 12:50:00 21.8 C 9.4 g/m*3 21.8 C 4.8 km/h
707 02-07-2014 12:55:00 21.9 C 9.65 g/m*3 21.9 C 4.8 km/h
708 02-07-2014 13:00:00 22.1 C 9.56 g/m*3 22.1 C 8.1 km/h
709 02-07-2014 13:05:00 22.3 C 9.48 g/m*3 22.3 C 8.1 km/h
710 02-07-2014 13:10:00 22.3 C 9.28 g/m*3 22.3 C 6.4 km/h
711 02-07-2014 13:15:00 22.3 C 9.08 g/m*3 22.3 C 9.7 km/h
712 02-07-2014 13:20:00 22.3 C 9.08 g/m*3 22.3 C 11.3 km/h
713 02-07-2014 13:25:00 22.4 C 8.94 g/m*3 22.4 C 6.4 km/h
714 02-07-2014 13:30:00 22.6 C 9.44 g/m*3 22.6 C 9.7 km/h
715 02-07-2014 13:35:00 22.7 C 10.51 g/m*3 22.7 C 9.7 km/h
716 02-07-2014 13:40:00 22.9 C 9.2 g/m*3 22.9 C 6.4 km/h
717 02-07-2014 13:45:00 23.1 C 9.1 g/m*3 23.1 C 8.1 km/h
718 02-07-2014 13:50:00 22.9 C 9.2 g/m*3 22.9 C 8.1 km/h
719 02-07-2014 13:55:00 22.8 C 9.35 g/m*3 22.8 C 12.9 km/h
720 02-07-2014 14:00:00 22.7 C 9.09 g/m*3 22.7 C 9.7 km/h
721 02-07-2014 14:05:00 22.6 C 9.44 g/m*3 22.6 C 6.4 km/h
722 02-07-2014 14:10:00 22.8 C 9.55 g/m*3 22.8 C 4.8 km/h
723 02-07-2014 14:15:00 23 C 9.45 g/m*3 23 C 12.9 km/h
724 02-07-2014 14:20:00 22.9 C 8.99 g/m*3 22.9 C 8.1 km/h
725 02-07-2014 14:25:00 23.1 C 9.72 g/m*3 23.1 C 12.9 km/h
Sensor: Nr:Datum:Temp:Abs-Feuchte:Windchill:Wind:
Aussen-T/F 726 02-07-2014 14:30:00 23.3 C 9.62 g/m*3 23.3 C 8.1 km/h
727 02-07-2014 14:35:00 23.6 C 9.78 g/m*3 23.6 C 14.5 km/h
728 02-07-2014 14:40:00 23.6 C 9.36 g/m*3 23.6 C 11.3 km/h
729 02-07-2014 14:45:00 23.7 C 9.2 g/m*3 23.7 C 8.1 km/h
730 02-07-2014 14:50:00 23.7 C 9.63 g/m*3 23.7 C 9.7 km/h
731 02-07-2014 14:55:00 23.9 C 9.95 g/m*3 23.9 C 11.3 km/h
732 02-07-2014 15:00:00 23.8 C 9.46 g/m*3 23.8 C 9.7 km/h
733 02-07-2014 15:05:00 23.7 C 9.41 g/m*3 23.7 C 12.9 km/h
734 02-07-2014 15:10:00 23.8 C 9.25 g/m*3 23.8 C 14.5 km/h
735 02-07-2014 15:15:00 23.8 C 8.82 g/m*3 23.8 C 14.5 km/h
736 02-07-2014 15:20:00 23.6 C 8.29 g/m*3 23.6 C 6.4 km/h
737 02-07-2014 15:25:00 23.7 C 8.77 g/m*3 23.7 C 9.7 km/h
738 02-07-2014 15:30:00 23.7 C 9.2 g/m*3 23.7 C 8.1 km/h
739 02-07-2014 15:35:00 23.7 C 8.98 g/m*3 23.7 C 11.3 km/h
740 02-07-2014 15:40:00 23.8 C 9.03 g/m*3 23.8 C 8.1 km/h
741 02-07-2014 15:45:00 24 C 8.7 g/m*3 24 C 11.3 km/h
742 02-07-2014 15:50:00 23.9 C 8.65 g/m*3 23.9 C 9.7 km/h
743 02-07-2014 15:55:00 24.3 C 8.41 g/m*3 24.3 C 6.4 km/h
744 02-07-2014 16:00:00 24.4 C 8.46 g/m*3 24.4 C 3.2 km/h
745 02-07-2014 16:05:00 24.4 C 8.46 g/m*3 24.4 C 8.1 km/h
746 02-07-2014 16:10:00 24.6 C 7.88 g/m*3 24.6 C 9.7 km/h
747 02-07-2014 16:15:00 24.5 C 7.83 g/m*3 24.5 C 6.4 km/h
748 02-07-2014 16:20:00 24.7 C 8.83 g/m*3 24.7 C 9.7 km/h
749 02-07-2014 16:25:00 25 C 8.52 g/m*3 25 C 9.7 km/h
750 02-07-2014 16:30:00 25.1 C 8.1 g/m*3 25.1 C 11.3 km/h
Sensor: Nr:Datum:Temp:Abs-Feuchte:Windchill:Wind:
Aussen-T/F 751 02-07-2014 16:35:00 25.1 C 8.8 g/m*3 25.1 C 11.3 km/h
752 02-07-2014 16:40:00 25.1 C 8.33 g/m*3 25.1 C 8.1 km/h
753 02-07-2014 16:45:00 25 C 7.83 g/m*3 25 C 4.8 km/h
754 02-07-2014 16:50:00 24.9 C 8.47 g/m*3 24.9 C 6.4 km/h
755 02-07-2014 16:55:00 24.7 C 8.6 g/m*3 24.7 C 6.4 km/h
756 02-07-2014 17:00:00 24.8 C 8.65 g/m*3 24.8 C 12.9 km/h
757 02-07-2014 17:05:00 24.9 C 7.55 g/m*3 24.9 C 8.1 km/h
758 02-07-2014 17:10:00 24.9 C 7.78 g/m*3 24.9 C 8.1 km/h
759 02-07-2014 17:15:00 24.9 C 7.78 g/m*3 24.9 C 9.7 km/h
760 02-07-2014 17:20:00 25 C 8.29 g/m*3 25 C 8.1 km/h
761 02-07-2014 17:25:00 25.2 C 8.85 g/m*3 25.2 C 11.3 km/h
762 02-07-2014 17:30:00 25.3 C 8.19 g/m*3 25.3 C 12.9 km/h
763 02-07-2014 17:35:00 25.2 C 8.85 g/m*3 25.2 C 6.4 km/h
764 02-07-2014 17:40:00 25.1 C 8.1 g/m*3 25.1 C 6.4 km/h
765 02-07-2014 17:45:00 25.1 C 7.64 g/m*3 25.1 C 8.1 km/h
766 02-07-2014 17:50:00 25.1 C 8.33 g/m*3 25.1 C 8.1 km/h
767 02-07-2014 17:55:00 25.4 C 7.53 g/m*3 25.4 C 8.1 km/h
768 02-07-2014 18:00:00 25.4 C 7.77 g/m*3 25.4 C 9.7 km/h
769 02-07-2014 18:05:00 25.2 C 7.68 g/m*3 25.2 C 9.7 km/h
770 02-07-2014 18:10:00 24.9 C 7.78 g/m*3 24.9 C 11.3 km/h
771 02-07-2014 18:15:00 25 C 8.29 g/m*3 25 C 4.8 km/h
772 02-07-2014 18:20:00 25.2 C 7.45 g/m*3 25.2 C 11.3 km/h
773 02-07-2014 18:25:00 25.1 C 7.41 g/m*3 25.1 C 8.1 km/h
774 02-07-2014 18:30:00 25.1 C 7.64 g/m*3 25.1 C 9.7 km/h
775 02-07-2014 18:35:00 24.8 C 7.97 g/m*3 24.8 C 9.7 km/h
Sensor: Nr:Datum:Temp:Abs-Feuchte:Windchill:Wind:
Aussen-T/F 776 02-07-2014 18:40:00 24.8 C 7.74 g/m*3 24.8 C 6.4 km/h
777 02-07-2014 18:45:00 24.7 C 7.92 g/m*3 24.7 C 6.4 km/h
778 02-07-2014 18:50:00 24.7 C 7.7 g/m*3 24.7 C 11.3 km/h
779 02-07-2014 18:55:00 24.6 C 7.65 g/m*3 24.6 C 8.1 km/h
780 02-07-2014 19:00:00 24.3 C 7.97 g/m*3 24.3 C 8.1 km/h
781 02-07-2014 19:05:00 24.3 C 7.97 g/m*3 24.3 C 9.7 km/h
782 02-07-2014 19:10:00 24.6 C 8.1 g/m*3 24.6 C 11.3 km/h
783 02-07-2014 19:15:00 24.5 C 8.06 g/m*3 24.5 C 11.3 km/h
784 02-07-2014 19:20:00 24.2 C 7.92 g/m*3 24.2 C 6.4 km/h
785 02-07-2014 19:25:00 24 C 7.83 g/m*3 24 C 9.7 km/h
786 02-07-2014 19:30:00 23.7 C 7.7 g/m*3 23.7 C 6.4 km/h
787 02-07-2014 19:35:00 23.6 C 7.44 g/m*3 23.6 C 9.7 km/h
788 02-07-2014 19:40:00 23.4 C 7.36 g/m*3 23.4 C 6.4 km/h
789 02-07-2014 19:45:00 23.4 C 7.36 g/m*3 23.4 C 11.3 km/h
790 02-07-2014 19:50:00 23.3 C 7.32 g/m*3 23.3 C 8.1 km/h
791 02-07-2014 19:55:00 23.2 C 7.48 g/m*3 23.2 C 6.4 km/h
792 02-07-2014 20:00:00 23.1 C 7.44 g/m*3 23.1 C 8.1 km/h
793 02-07-2014 20:05:00 22.9 C 7.77 g/m*3 22.9 C 6.4 km/h
794 02-07-2014 20:10:00 22.9 C 7.77 g/m*3 22.9 C 8.1 km/h
795 02-07-2014 20:15:00 22.8 C 7.92 g/m*3 22.8 C 6.4 km/h
796 02-07-2014 20:20:00 22.7 C 7.88 g/m*3 22.7 C 6.4 km/h
797 02-07-2014 20:25:00 22.6 C 7.63 g/m*3 22.6 C 4.8 km/h
798 02-07-2014 20:30:00 22.4 C 7.94 g/m*3 22.4 C 4.8 km/h
799 02-07-2014 20:35:00 22.3 C 7.9 g/m*3 22.3 C 3.2 km/h
800 02-07-2014 20:40:00 22.2 C 8.05 g/m*3 22.2 C 4.8 km/h
Sensor: Nr:Datum:Temp:Abs-Feuchte:Windchill:Wind:
Aussen-T/F 801 02-07-2014 20:45:00 22.1 C 8.59 g/m*3 22.1 C 4.8 km/h
802 02-07-2014 20:50:00 21.8 C 8.63 g/m*3 21.8 C 1.6 km/h
803 02-07-2014 20:55:00 21.4 C 9 g/m*3 21.4 C 1.6 km/h
804 02-07-2014 21:00:00 20.8 C 8.33 g/m*3 20.8 C 3.2 km/h
805 02-07-2014 21:05:00 20.1 C 9.21 g/m*3 20.1 C 0 km/h
806 02-07-2014 21:10:00 19.3 C 9.79 g/m*3 19.3 C 0 km/h
807 02-07-2014 21:15:00 18.6 C 9.71 g/m*3 18.6 C 1.6 km/h
808 02-07-2014 21:20:00 18.1 C 9.73 g/m*3 18.1 C 0 km/h
809 02-07-2014 21:25:00 17.7 C 9.35 g/m*3 17.7 C 1.6 km/h
810 02-07-2014 21:30:00 17.4 C 9.34 g/m*3 17.4 C 1.6 km/h
811 02-07-2014 21:35:00 17.1 C 9.46 g/m*3 17.1 C 1.6 km/h
812 02-07-2014 21:40:00 16.8 C 9.29 g/m*3 16.8 C 1.6 km/h
813 02-07-2014 21:45:00 16.6 C 9.46 g/m*3 16.6 C 1.6 km/h
814 02-07-2014 21:50:00 16.4 C 9.35 g/m*3 16.4 C 1.6 km/h
815 02-07-2014 21:55:00 16.3 C 9.57 g/m*3 16.3 C 1.6 km/h
816 02-07-2014 22:00:00 16.1 C 9.32 g/m*3 16.1 C 1.6 km/h
817 02-07-2014 22:05:00 16 C 9.26 g/m*3 16 C 1.6 km/h
818 02-07-2014 22:10:00 15.9 C 9.48 g/m*3 15.9 C 1.6 km/h
819 02-07-2014 22:15:00 15.8 C 9.56 g/m*3 15.8 C 0 km/h
820 02-07-2014 22:20:00 15.8 C 9.56 g/m*3 15.8 C 0 km/h
821 02-07-2014 22:25:00 15.7 C 9.5 g/m*3 15.7 C 0 km/h
822 02-07-2014 22:30:00 15.7 C 9.63 g/m*3 15.7 C 0 km/h
823 02-07-2014 22:35:00 15.6 C 9.31 g/m*3 15.6 C 0 km/h
824 02-07-2014 22:40:00 15.6 C 9.58 g/m*3 15.6 C 1.6 km/h
825 02-07-2014 22:45:00 15.5 C 9.39 g/m*3 15.5 C 1.6 km/h
Sensor: Nr:Datum:Temp:Abs-Feuchte:Windchill:Wind:
Aussen-T/F 826 02-07-2014 22:50:00 15.4 C 9.46 g/m*3 15.4 C 0 km/h
827 02-07-2014 22:55:00 15.4 C 9.59 g/m*3 15.4 C 0 km/h
828 02-07-2014 23:00:00 15.3 C 9.53 g/m*3 15.3 C 0 km/h
829 02-07-2014 23:05:00 15.2 C 9.48 g/m*3 15.2 C 0 km/h
830 02-07-2014 23:10:00 15.2 C 9.61 g/m*3 15.2 C 0 km/h
831 02-07-2014 23:15:00 15.1 C 9.55 g/m*3 15.1 C 0 km/h
832 02-07-2014 23:20:00 14.9 C 9.43 g/m*3 14.9 C 0 km/h
833 02-07-2014 23:25:00 14.7 C 9.44 g/m*3 14.7 C 0 km/h
834 02-07-2014 23:30:00 14.5 C 9.58 g/m*3 14.5 C 0 km/h
835 02-07-2014 23:35:00 14.4 C 9.52 g/m*3 14.4 C 0 km/h
836 02-07-2014 23:40:00 14.3 C 9.34 g/m*3 14.3 C 0 km/h
837 02-07-2014 23:45:00 14.3 C 9.34 g/m*3 14.3 C 0 km/h
838 02-07-2014 23:50:00 14.2 C 9.52 g/m*3 14.2 C 0 km/h
839 02-07-2014 23:55:00 14.1 C 9.47 g/m*3 14.1 C 0 km/h
840 03-07-2014 00:00:00 13.9 C 9.23 g/m*3 13.9 C 0 km/h
841 03-07-2014 00:05:00 13.8 C 9.17 g/m*3 13.8 C 0 km/h
842 03-07-2014 00:10:00 13.8 C 9.29 g/m*3 13.8 C 0 km/h
843 03-07-2014 00:15:00 13.7 C 9.35 g/m*3 13.7 C 0 km/h
844 03-07-2014 00:20:00 13.5 C 9.24 g/m*3 13.5 C 0 km/h
845 03-07-2014 00:25:00 13.4 C 9.3 g/m*3 13.4 C 0 km/h
846 03-07-2014 00:30:00 13.3 C 9.13 g/m*3 13.3 C 0 km/h
847 03-07-2014 00:35:00 13.3 C 9.13 g/m*3 13.3 C 0 km/h
848 03-07-2014 00:40:00 13.2 C 9.19 g/m*3 13.2 C 0 km/h
849 03-07-2014 00:45:00 13.2 C 9.07 g/m*3 13.2 C 0 km/h
850 03-07-2014 00:50:00 13.1 C 9.01 g/m*3 13.1 C 0 km/h
Sensor: Nr:Datum:Temp:Abs-Feuchte:Windchill:Wind:
Aussen-T/F 851 03-07-2014 00:55:00 13.1 C 9.13 g/m*3 13.1 C 0 km/h
852 03-07-2014 01:00:00 13 C 8.96 g/m*3 13 C 0 km/h
853 03-07-2014 01:05:00 12.9 C 8.9 g/m*3 12.9 C 0 km/h
854 03-07-2014 01:10:00 12.9 C 8.9 g/m*3 12.9 C 0 km/h
855 03-07-2014 01:15:00 12.8 C 8.96 g/m*3 12.8 C 0 km/h
856 03-07-2014 01:20:00 12.8 C 8.96 g/m*3 12.8 C 0 km/h
857 03-07-2014 01:25:00 12.7 C 9.02 g/m*3 12.7 C 0 km/h
858 03-07-2014 01:30:00 12.6 C 8.96 g/m*3 12.6 C 0 km/h
859 03-07-2014 01:35:00 12.5 C 8.91 g/m*3 12.5 C 0 km/h
860 03-07-2014 01:40:00 12.4 C 8.96 g/m*3 12.4 C 0 km/h
861 03-07-2014 01:45:00 12.3 C 8.9 g/m*3 12.3 C 0 km/h
862 03-07-2014 01:50:00 12.3 C 8.9 g/m*3 12.3 C 0 km/h
863 03-07-2014 01:55:00 12.2 C 8.85 g/m*3 12.2 C 0 km/h
864 03-07-2014 02:00:00 12.1 C 8.9 g/m*3 12.1 C 0 km/h
865 03-07-2014 02:05:00 12 C 8.85 g/m*3 12 C 0 km/h
866 03-07-2014 02:10:00 12 C 8.74 g/m*3 12 C 0 km/h
867 03-07-2014 02:15:00 11.9 C 8.79 g/m*3 11.9 C 0 km/h
868 03-07-2014 02:20:00 11.8 C 8.74 g/m*3 11.8 C 0 km/h
869 03-07-2014 02:25:00 11.8 C 8.84 g/m*3 11.8 C 0 km/h
870 03-07-2014 02:30:00 11.7 C 8.79 g/m*3 11.7 C 0 km/h
871 03-07-2014 02:35:00 11.6 C 8.73 g/m*3 11.6 C 0 km/h
872 03-07-2014 02:40:00 11.6 C 8.83 g/m*3 11.6 C 0 km/h
873 03-07-2014 02:45:00 11.6 C 8.83 g/m*3 11.6 C 0 km/h
874 03-07-2014 02:50:00 11.5 C 8.78 g/m*3 11.5 C 0 km/h
875 03-07-2014 02:55:00 11.5 C 8.78 g/m*3 11.5 C 1.6 km/h
Sensor: Nr:Datum:Temp:Abs-Feuchte:Windchill:Wind:
Aussen-T/F 876 03-07-2014 03:00:00 11.4 C 8.72 g/m*3 11.4 C 0 km/h
877 03-07-2014 03:05:00 11.4 C 8.72 g/m*3 11.4 C 0 km/h
878 03-07-2014 03:10:00 11.3 C 8.77 g/m*3 11.3 C 0 km/h
879 03-07-2014 03:15:00 11.3 C 8.77 g/m*3 11.3 C 0 km/h
880 03-07-2014 03:20:00 11.3 C 8.77 g/m*3 11.3 C 0 km/h
881 03-07-2014 03:25:00 11.2 C 8.72 g/m*3 11.2 C 0 km/h
882 03-07-2014 03:30:00 11.2 C 8.72 g/m*3 11.2 C 0 km/h
883 03-07-2014 03:35:00 11.1 C 8.66 g/m*3 11.1 C 0 km/h
884 03-07-2014 03:40:00 11.1 C 8.66 g/m*3 11.1 C 0 km/h
885 03-07-2014 03:45:00 11 C 8.71 g/m*3 11 C 0 km/h
886 03-07-2014 03:50:00 11 C 8.71 g/m*3 11 C 0 km/h
887 03-07-2014 03:55:00 10.9 C 8.65 g/m*3 10.9 C 0 km/h
888 03-07-2014 04:00:00 10.8 C 8.6 g/m*3 10.8 C 0 km/h
889 03-07-2014 04:05:00 10.8 C 8.6 g/m*3 10.8 C 0 km/h
890 03-07-2014 04:10:00 10.7 C 8.55 g/m*3 10.7 C 0 km/h
891 03-07-2014 04:15:00 10.6 C 8.59 g/m*3 10.6 C 0 km/h
892 03-07-2014 04:20:00 10.5 C 8.53 g/m*3 10.5 C 0 km/h
893 03-07-2014 04:25:00 10.5 C 8.53 g/m*3 10.5 C 0 km/h
894 03-07-2014 04:30:00 10.4 C 8.58 g/m*3 10.4 C 0 km/h
895 03-07-2014 04:35:00 10.3 C 8.52 g/m*3 10.3 C 0 km/h
896 03-07-2014 04:40:00 10.3 C 8.52 g/m*3 10.3 C 0 km/h
897 03-07-2014 04:45:00 10.2 C 8.47 g/m*3 10.2 C 0 km/h
898 03-07-2014 04:50:00 10.1 C 8.51 g/m*3 10.1 C 0 km/h
899 03-07-2014 04:55:00 10.1 C 8.51 g/m*3 10.1 C 0 km/h
900 03-07-2014 05:00:00 10.1 C 8.51 g/m*3 10.1 C 0 km/h
Sensor: Nr:Datum:Temp:Abs-Feuchte:Windchill:Wind:
Aussen-T/F 901 03-07-2014 05:05:00 10 C 8.46 g/m*3 10 C 0 km/h
902 03-07-2014 05:10:00 10 C 8.46 g/m*3 10 C 0 km/h
903 03-07-2014 05:15:00 9.9 C 8.4 g/m*3 9.9 C 0 km/h
904 03-07-2014 05:20:00 9.9 C 8.5 g/m*3 9.9 C 0 km/h
905 03-07-2014 05:25:00 9.8 C 8.44 g/m*3 9.8 C 0 km/h
906 03-07-2014 05:30:00 9.8 C 8.44 g/m*3 9.8 C 0 km/h
907 03-07-2014 05:35:00 9.8 C 8.44 g/m*3 9.8 C 0 km/h
908 03-07-2014 05:40:00 9.8 C 8.44 g/m*3 9.8 C 0 km/h
909 03-07-2014 05:45:00 9.8 C 8.44 g/m*3 9.8 C 0 km/h
910 03-07-2014 05:50:00 9.8 C 8.44 g/m*3 9.8 C 0 km/h
911 03-07-2014 05:55:00 9.7 C 8.48 g/m*3 9.7 C 0 km/h
912 03-07-2014 06:00:00 9.8 C 8.54 g/m*3 9.8 C 0 km/h
913 03-07-2014 06:05:00 9.8 C 8.54 g/m*3 9.8 C 0 km/h
914 03-07-2014 06:10:00 9.8 C 8.54 g/m*3 9.8 C 1.6 km/h
915 03-07-2014 06:15:00 9.8 C 8.54 g/m*3 9.8 C 0 km/h
916 03-07-2014 06:20:00 9.8 C 8.54 g/m*3 9.8 C 0 km/h
917 03-07-2014 06:25:00 9.8 C 8.54 g/m*3 9.8 C 0 km/h
918 03-07-2014 06:30:00 9.8 C 8.54 g/m*3 9.8 C 0 km/h
919 03-07-2014 06:35:00 9.9 C 8.59 g/m*3 9.9 C 0 km/h
920 03-07-2014 06:40:00 9.9 C 8.59 g/m*3 9.9 C 0 km/h
921 03-07-2014 06:45:00 9.9 C 8.59 g/m*3 9.9 C 0 km/h
922 03-07-2014 06:50:00 9.9 C 8.59 g/m*3 9.9 C 0 km/h
923 03-07-2014 06:55:00 10 C 8.64 g/m*3 10 C 0 km/h
924 03-07-2014 07:00:00 10.1 C 8.7 g/m*3 10.1 C 0 km/h
925 03-07-2014 07:05:00 10.2 C 8.76 g/m*3 10.2 C 0 km/h
Sensor: Nr:Datum:Temp:Abs-Feuchte:Windchill:Wind:
Aussen-T/F 926 03-07-2014 07:10:00 10.2 C 8.76 g/m*3 10.2 C 0 km/h
927 03-07-2014 07:15:00 10.3 C 8.81 g/m*3 10.3 C 0 km/h
928 03-07-2014 07:20:00 10.4 C 8.87 g/m*3 10.4 C 0 km/h
929 03-07-2014 07:25:00 10.4 C 8.87 g/m*3 10.4 C 0 km/h
930 03-07-2014 07:30:00 10.5 C 8.92 g/m*3 10.5 C 0 km/h
931 03-07-2014 07:35:00 10.6 C 8.98 g/m*3 10.6 C 0 km/h
932 03-07-2014 07:40:00 10.6 C 8.98 g/m*3 10.6 C 0 km/h
933 03-07-2014 07:45:00 10.7 C 9.04 g/m*3 10.7 C 0 km/h
934 03-07-2014 07:50:00 10.8 C 9.09 g/m*3 10.8 C 0 km/h
935 03-07-2014 07:55:00 11.1 C 9.27 g/m*3 11.1 C 0 km/h
936 03-07-2014 08:00:00 11.4 C 9.34 g/m*3 11.4 C 0 km/h
937 03-07-2014 08:05:00 11.8 C 9.37 g/m*3 11.8 C 0 km/h
938 03-07-2014 08:10:00 12.2 C 9.5 g/m*3 12.2 C 0 km/h
939 03-07-2014 08:15:00 12.5 C 9.57 g/m*3 12.5 C 0 km/h
940 03-07-2014 08:20:00 12.8 C 9.63 g/m*3 12.8 C 0 km/h
941 03-07-2014 08:25:00 13.2 C 9.76 g/m*3 13.2 C 0 km/h
942 03-07-2014 08:30:00 13.6 C 9.77 g/m*3 13.6 C 0 km/h
943 03-07-2014 08:35:00 13.8 C 9.65 g/m*3 13.8 C 0 km/h
944 03-07-2014 08:40:00 13.9 C 9.71 g/m*3 13.9 C 0 km/h
945 03-07-2014 08:45:00 14.1 C 9.71 g/m*3 14.1 C 0 km/h
946 03-07-2014 08:50:00 14.3 C 9.95 g/m*3 14.3 C 0 km/h
947 03-07-2014 08:55:00 14.6 C 10.01 g/m*3 14.6 C 0 km/h
948 03-07-2014 09:00:00 14.7 C 9.95 g/m*3 14.7 C 0 km/h
949 03-07-2014 09:05:00 14.8 C 10.13 g/m*3 14.8 C 0 km/h
950 03-07-2014 09:10:00 15 C 10.26 g/m*3 15 C 0 km/h
Sensor: Nr:Datum:Temp:Abs-Feuchte:Windchill:Wind:
Aussen-T/F 951 03-07-2014 09:15:00 15.1 C 10.19 g/m*3 15.1 C 0 km/h
952 03-07-2014 09:20:00 15 C 10.26 g/m*3 15 C 0 km/h
953 03-07-2014 09:25:00 14.9 C 10.2 g/m*3 14.9 C 0 km/h
954 03-07-2014 09:30:00 14.9 C 10.32 g/m*3 14.9 C 0 km/h
955 03-07-2014 09:35:00 14.9 C 10.32 g/m*3 14.9 C 0 km/h
956 03-07-2014 09:40:00 14.9 C 10.45 g/m*3 14.9 C 0 km/h
957 03-07-2014 09:45:00 15 C 10.77 g/m*3 15 C 0 km/h
958 03-07-2014 09:50:00 15.2 C 10.77 g/m*3 15.2 C 0 km/h
959 03-07-2014 09:55:00 15.4 C 10.9 g/m*3 15.4 C 0 km/h
960 03-07-2014 10:00:00 15.8 C 11.17 g/m*3 15.8 C 0 km/h
961 03-07-2014 10:05:00 16.3 C 11.38 g/m*3 16.3 C 0 km/h
962 03-07-2014 10:10:00 16.7 C 11.51 g/m*3 16.7 C 0 km/h
963 03-07-2014 10:15:00 17 C 11.43 g/m*3 17 C 0 km/h
964 03-07-2014 10:20:00 17.3 C 11.49 g/m*3 17.3 C 0 km/h
965 03-07-2014 10:25:00 17.7 C 11.62 g/m*3 17.7 C 1.6 km/h
966 03-07-2014 10:30:00 17.9 C 11.76 g/m*3 17.9 C 1.6 km/h
967 03-07-2014 10:35:00 18.2 C 11.81 g/m*3 18.2 C 1.6 km/h
968 03-07-2014 10:40:00 18.3 C 11.73 g/m*3 18.3 C 1.6 km/h
969 03-07-2014 10:45:00 18.6 C 11.94 g/m*3 18.6 C 1.6 km/h
970 03-07-2014 10:50:00 18.8 C 11.92 g/m*3 18.8 C 0 km/h
971 03-07-2014 10:55:00 19.1 C 11.97 g/m*3 19.1 C 3.2 km/h
972 03-07-2014 11:00:00 19.4 C 12.18 g/m*3 19.4 C 3.2 km/h
973 03-07-2014 11:05:00 19.7 C 12.06 g/m*3 19.7 C 0 km/h
974 03-07-2014 11:10:00 19.9 C 12.37 g/m*3 19.9 C 0 km/h
975 03-07-2014 11:15:00 20.3 C 11.61 g/m*3 20.3 C 3.2 km/h
Sensor: Nr:Datum:Temp:Abs-Feuchte:Windchill:Wind:
Aussen-T/F 976 03-07-2014 11:20:00 20.6 C 12.53 g/m*3 20.6 C 1.6 km/h
977 03-07-2014 11:25:00 21 C 11.36 g/m*3 21 C 3.2 km/h
978 03-07-2014 11:30:00 21.8 C 10.36 g/m*3 21.8 C 6.4 km/h
979 03-07-2014 11:35:00 22.5 C 10.39 g/m*3 22.5 C 6.4 km/h
980 03-07-2014 11:40:00 23.1 C 10.34 g/m*3 23.1 C 4.8 km/h
981 03-07-2014 11:45:00 23.4 C 10.09 g/m*3 23.4 C 6.4 km/h
982 03-07-2014 11:50:00 23.6 C 10.85 g/m*3 23.6 C 4.8 km/h
983 03-07-2014 11:55:00 23.9 C 9.74 g/m*3 23.9 C 8.1 km/h
984 03-07-2014 12:00:00 24.3 C 9.74 g/m*3 24.3 C 9.7 km/h
985 03-07-2014 12:05:00 24.8 C 9.33 g/m*3 24.8 C 8.1 km/h
986 03-07-2014 12:10:00 25.1 C 9.49 g/m*3 25.1 C 14.5 km/h
987 03-07-2014 12:15:00 25.3 C 8.9 g/m*3 25.3 C 12.9 km/h
988 03-07-2014 12:20:00 25.4 C 8.48 g/m*3 25.4 C 8.1 km/h
989 03-07-2014 12:25:00 25.5 C 9.47 g/m*3 25.5 C 9.7 km/h
990 03-07-2014 12:30:00 25.7 C 9.1 g/m*3 25.7 C 6.4 km/h
991 03-07-2014 12:35:00 25.8 C 8.19 g/m*3 25.8 C 14.5 km/h
992 03-07-2014 12:40:00 25.8 C 7.94 g/m*3 25.8 C 9.7 km/h
993 03-07-2014 12:45:00 26 C 8.28 g/m*3 26 C 11.3 km/h
994 03-07-2014 12:50:00 26.2 C 8.86 g/m*3 26.2 C 8.1 km/h
995 03-07-2014 12:55:00 26.4 C 8.46 g/m*3 26.4 C 14.5 km/h
996 03-07-2014 13:00:00 26.6 C 8.31 g/m*3 26.6 C 11.3 km/h
997 03-07-2014 13:05:00 26.7 C 8.61 g/m*3 26.7 C 12.9 km/h
998 03-07-2014 13:10:00 26.8 C 8.65 g/m*3 26.8 C 11.3 km/h
999 03-07-2014 13:15:00 26.8 C 8.91 g/m*3 26.8 C 8.1 km/h
1000 03-07-2014 13:20:00 27.1 C 8.54 g/m*3 27.1 C 8.1 km/h
Sensor: Nr:Datum:Temp:Abs-Feuchte:Windchill:Wind:
Aussen-T/F 1001 03-07-2014 13:25:00 26.9 C 8.96 g/m*3 26.9 C 14.5 km/h
1002 03-07-2014 13:30:00 26.9 C 8.96 g/m*3 26.9 C 11.3 km/h
1003 03-07-2014 13:35:00 27.1 C 9.32 g/m*3 27.1 C 9.7 km/h
1004 03-07-2014 13:40:00 27.3 C 8.9 g/m*3 27.3 C 12.9 km/h
1005 03-07-2014 13:45:00 27.3 C 9.16 g/m*3 27.3 C 9.7 km/h
1006 03-07-2014 13:50:00 27.4 C 9.21 g/m*3 27.4 C 8.1 km/h
1007 03-07-2014 13:55:00 27.6 C 8.51 g/m*3 27.6 C 12.9 km/h
1008 03-07-2014 14:00:00 27.6 C 8.51 g/m*3 27.6 C 8.1 km/h
1009 03-07-2014 14:05:00 27.7 C 8.83 g/m*3 27.7 C 11.3 km/h
1010 03-07-2014 14:10:00 27.7 C 8.83 g/m*3 27.7 C 19.3 km/h
1011 03-07-2014 14:15:00 27.8 C 9.41 g/m*3 27.8 C 4.8 km/h
1012 03-07-2014 14:20:00 28 C 10.06 g/m*3 28 C 9.7 km/h
1013 03-07-2014 14:25:00 28.1 C 8.48 g/m*3 28.1 C 16.1 km/h
1014 03-07-2014 14:30:00 28.1 C 8.75 g/m*3 28.1 C 16.1 km/h
1015 03-07-2014 14:35:00 28.1 C 9.02 g/m*3 28.1 C 12.9 km/h
1016 03-07-2014 14:40:00 28.3 C 8.85 g/m*3 28.3 C 9.7 km/h
1017 03-07-2014 14:45:00 28.6 C 8.71 g/m*3 28.6 C 16.1 km/h
1018 03-07-2014 14:50:00 28.7 C 8.19 g/m*3 28.7 C 8.1 km/h
1019 03-07-2014 14:55:00 28.8 C 8.81 g/m*3 28.8 C 9.7 km/h
1020 03-07-2014 15:00:00 29.1 C 8.66 g/m*3 29.1 C 6.4 km/h
1021 03-07-2014 15:05:00 28.9 C 8.86 g/m*3 28.9 C 12.9 km/h
1022 03-07-2014 15:10:00 28.6 C 8.43 g/m*3 28.6 C 14.5 km/h
1023 03-07-2014 15:15:00 28.9 C 8.57 g/m*3 28.9 C 12.9 km/h
1024 03-07-2014 15:20:00 29.1 C 8.38 g/m*3 29.1 C 12.9 km/h
1025 03-07-2014 15:25:00 29.1 C 8.09 g/m*3 29.1 C 12.9 km/h
Sensor: Nr:Datum:Temp:Abs-Feuchte:Windchill:Wind:
Aussen-T/F 1026 03-07-2014 15:30:00 29 C 7.76 g/m*3 29 C 16.1 km/h
1027 03-07-2014 15:35:00 29.2 C 7.55 g/m*3 29.2 C 14.5 km/h
1028 03-07-2014 15:40:00 29.4 C 7.63 g/m*3 29.4 C 11.3 km/h
1029 03-07-2014 15:45:00 29.5 C 7.97 g/m*3 29.5 C 12.9 km/h
1030 03-07-2014 15:50:00 29.5 C 8.26 g/m*3 29.5 C 8.1 km/h
1031 03-07-2014 15:55:00 29.7 C 8.06 g/m*3 29.7 C 14.5 km/h
1032 03-07-2014 16:00:00 29.7 C 8.35 g/m*3 29.7 C 12.9 km/h
1033 03-07-2014 16:05:00 29.8 C 8.1 g/m*3 29.8 C 11.3 km/h
1034 03-07-2014 16:10:00 29.9 C 7.54 g/m*3 29.9 C 12.9 km/h
1035 03-07-2014 16:15:00 30 C 8.19 g/m*3 30 C 9.7 km/h
1036 03-07-2014 16:20:00 30.2 C 7.97 g/m*3 30.2 C 14.5 km/h
1037 03-07-2014 16:25:00 29.9 C 7.24 g/m*3 29.9 C 16.1 km/h
1038 03-07-2014 16:30:00 30 C 8.19 g/m*3 30 C 6.4 km/h
1039 03-07-2014 16:35:00 29.9 C 7.24 g/m*3 29.9 C 8.1 km/h
1040 03-07-2014 16:40:00 30.1 C 7.62 g/m*3 30.1 C 17.7 km/h
1041 03-07-2014 16:45:00 30.1 C 7.62 g/m*3 30.1 C 14.5 km/h
1042 03-07-2014 16:50:00 29.9 C 7.84 g/m*3 29.9 C 9.7 km/h
1043 03-07-2014 16:55:00 30.1 C 7.93 g/m*3 30.1 C 11.3 km/h
1044 03-07-2014 17:00:00 30.1 C 7.93 g/m*3 30.1 C 14.5 km/h
1045 03-07-2014 17:05:00 30.3 C 8.32 g/m*3 30.3 C 9.7 km/h
1046 03-07-2014 17:10:00 30.5 C 8.1 g/m*3 30.5 C 8.1 km/h
1047 03-07-2014 17:15:00 30.6 C 8.14 g/m*3 30.6 C 11.3 km/h
1048 03-07-2014 17:20:00 30.5 C 7.79 g/m*3 30.5 C 12.9 km/h
1049 03-07-2014 17:25:00 30.5 C 7.48 g/m*3 30.5 C 9.7 km/h
1050 03-07-2014 17:30:00 30.2 C 7.66 g/m*3 30.2 C 6.4 km/h
Sensor: Nr:Datum:Temp:Abs-Feuchte:Windchill:Wind:
Aussen-T/F 1051 03-07-2014 17:35:00 30.3 C 8.01 g/m*3 30.3 C 6.4 km/h
1052 03-07-2014 17:40:00 30.3 C 8.01 g/m*3 30.3 C 8.1 km/h
1053 03-07-2014 17:45:00 30.5 C 8.1 g/m*3 30.5 C 12.9 km/h
1054 03-07-2014 17:50:00 30.8 C 7.6 g/m*3 30.8 C 9.7 km/h
1055 03-07-2014 17:55:00 31.1 C 8.04 g/m*3 31.1 C 12.9 km/h
1056 03-07-2014 18:00:00 31.2 C 7.76 g/m*3 31.2 C 8.1 km/h
1057 03-07-2014 18:05:00 30.9 C 7.32 g/m*3 30.9 C 17.7 km/h
1058 03-07-2014 18:10:00 30.7 C 7.56 g/m*3 30.7 C 9.7 km/h
1059 03-07-2014 18:15:00 30.6 C 6.89 g/m*3 30.6 C 14.5 km/h
1060 03-07-2014 18:20:00 30.8 C 7.28 g/m*3 30.8 C 9.7 km/h
1061 03-07-2014 18:25:00 30.8 C 6.97 g/m*3 30.8 C 9.7 km/h
1062 03-07-2014 18:30:00 30.8 C 7.28 g/m*3 30.8 C 9.7 km/h
1063 03-07-2014 18:35:00 30.7 C 6.61 g/m*3 30.7 C 14.5 km/h
1064 03-07-2014 18:40:00 30.7 C 6.61 g/m*3 30.7 C 14.5 km/h
1065 03-07-2014 18:45:00 30.4 C 6.82 g/m*3 30.4 C 14.5 km/h
1066 03-07-2014 18:50:00 30.3 C 7.09 g/m*3 30.3 C 9.7 km/h
1067 03-07-2014 18:55:00 30.3 C 6.78 g/m*3 30.3 C 11.3 km/h
1068 03-07-2014 19:00:00 30.3 C 7.4 g/m*3 30.3 C 9.7 km/h
1069 03-07-2014 19:05:00 30.3 C 7.09 g/m*3 30.3 C 9.7 km/h
1070 03-07-2014 19:10:00 30.3 C 7.4 g/m*3 30.3 C 16.1 km/h
1071 03-07-2014 19:15:00 30.2 C 7.36 g/m*3 30.2 C 9.7 km/h
1072 03-07-2014 19:20:00 30.1 C 8.23 g/m*3 30.1 C 6.4 km/h
1073 03-07-2014 19:25:00 29.8 C 7.5 g/m*3 29.8 C 11.3 km/h
1074 03-07-2014 19:30:00 29.6 C 7.12 g/m*3 29.6 C 11.3 km/h
1075 03-07-2014 19:35:00 29.3 C 7.01 g/m*3 29.3 C 9.7 km/h
Sensor: Nr:Datum:Temp:Abs-Feuchte:Windchill:Wind:
Aussen-T/F 1076 03-07-2014 19:40:00 29 C 6.89 g/m*3 29 C 14.5 km/h
1077 03-07-2014 19:45:00 28.8 C 7.39 g/m*3 28.8 C 12.9 km/h
1078 03-07-2014 19:50:00 28.6 C 7.03 g/m*3 28.6 C 9.7 km/h
1079 03-07-2014 19:55:00 28.4 C 7.78 g/m*3 28.4 C 9.7 km/h
1080 03-07-2014 20:00:00 28.3 C 7.46 g/m*3 28.3 C 6.4 km/h
1081 03-07-2014 20:05:00 28.1 C 7.38 g/m*3 28.1 C 12.9 km/h
1082 03-07-2014 20:10:00 28 C 7.89 g/m*3 28 C 8.1 km/h
1083 03-07-2014 20:15:00 27.8 C 7.26 g/m*3 27.8 C 3.2 km/h
1084 03-07-2014 20:20:00 27.7 C 7.49 g/m*3 27.7 C 8.1 km/h
1085 03-07-2014 20:25:00 27.4 C 8.16 g/m*3 27.4 C 6.4 km/h
1086 03-07-2014 20:30:00 27.2 C 8.33 g/m*3 27.2 C 3.2 km/h
1087 03-07-2014 20:35:00 26.8 C 9.42 g/m*3 26.8 C 1.6 km/h
1088 03-07-2014 20:40:00 26.2 C 10.09 g/m*3 26.2 C 0 km/h
1089 03-07-2014 20:45:00 25.6 C 10.24 g/m*3 25.6 C 1.6 km/h
1090 03-07-2014 20:50:00 25 C 9.67 g/m*3 25 C 0 km/h
1091 03-07-2014 20:55:00 24.4 C 10.24 g/m*3 24.4 C 0 km/h
1092 03-07-2014 21:00:00 23.9 C 9.95 g/m*3 23.9 C 1.6 km/h
1093 03-07-2014 21:05:00 23.5 C 10.15 g/m*3 23.5 C 1.6 km/h
1094 03-07-2014 21:10:00 23.1 C 10.34 g/m*3 23.1 C 1.6 km/h
1095 03-07-2014 21:15:00 22.7 C 10.1 g/m*3 22.7 C 3.2 km/h
1096 03-07-2014 21:20:00 22.3 C 9.87 g/m*3 22.3 C 3.2 km/h
1097 03-07-2014 21:25:00 22.1 C 9.96 g/m*3 22.1 C 3.2 km/h
1098 03-07-2014 21:30:00 21.8 C 9.78 g/m*3 21.8 C 1.6 km/h
1099 03-07-2014 21:35:00 21.6 C 9.67 g/m*3 21.6 C 1.6 km/h
1100 03-07-2014 21:40:00 21.5 C 9.81 g/m*3 21.5 C 1.6 km/h
Sensor: Nr:Datum:Temp:Abs-Feuchte:Windchill:Wind:
Aussen-T/F 1101 03-07-2014 21:45:00 21.3 C 9.69 g/m*3 21.3 C 3.2 km/h
1102 03-07-2014 21:50:00 21.2 C 9.82 g/m*3 21.2 C 1.6 km/h
1103 03-07-2014 21:55:00 21 C 9.71 g/m*3 21 C 3.2 km/h
1104 03-07-2014 22:00:00 20.9 C 9.83 g/m*3 20.9 C 1.6 km/h
1105 03-07-2014 22:05:00 20.7 C 9.54 g/m*3 20.7 C 1.6 km/h
1106 03-07-2014 22:10:00 20.6 C 9.66 g/m*3 20.6 C 1.6 km/h
1107 03-07-2014 22:15:00 20.4 C 9.73 g/m*3 20.4 C 1.6 km/h
1108 03-07-2014 22:20:00 20.3 C 10.2 g/m*3 20.3 C 1.6 km/h
1109 03-07-2014 22:25:00 20.2 C 9.79 g/m*3 20.2 C 0 km/h
1110 03-07-2014 22:30:00 19.9 C 10.14 g/m*3 19.9 C 0 km/h
1111 03-07-2014 22:35:00 19.7 C 10.02 g/m*3 19.7 C 0 km/h
1112 03-07-2014 22:40:00 19.3 C 9.95 g/m*3 19.3 C 0 km/h
1113 03-07-2014 22:45:00 19.2 C 10.06 g/m*3 19.2 C 0 km/h
1114 03-07-2014 22:50:00 19.1 C 9.84 g/m*3 19.1 C 3.2 km/h
1115 03-07-2014 22:55:00 19.2 C 9.73 g/m*3 19.2 C 6.4 km/h
1116 03-07-2014 23:00:00 19.2 C 10.22 g/m*3 19.2 C 3.2 km/h
1117 03-07-2014 23:05:00 19.1 C 10.16 g/m*3 19.1 C 3.2 km/h
1118 03-07-2014 23:10:00 19.1 C 9.67 g/m*3 19.1 C 4.8 km/h
1119 03-07-2014 23:15:00 19 C 9.94 g/m*3 19 C 1.6 km/h
1120 03-07-2014 23:20:00 18.8 C 9.99 g/m*3 18.8 C 0 km/h
1121 03-07-2014 23:25:00 18.4 C 9.91 g/m*3 18.4 C 0 km/h
1122 03-07-2014 23:30:00 18.1 C 10.04 g/m*3 18.1 C 0 km/h
1123 03-07-2014 23:35:00 17.8 C 9.71 g/m*3 17.8 C 0 km/h
1124 03-07-2014 23:40:00 17.8 C 9.87 g/m*3 17.8 C 0 km/h
1125 03-07-2014 23:45:00 17.7 C 9.96 g/m*3 17.7 C 0 km/h
Sensor: Nr:Datum:Temp:Abs-Feuchte:Windchill:Wind:
Aussen-T/F 1126 03-07-2014 23:50:00 17.6 C 9.9 g/m*3 17.6 C 0 km/h
1127 03-07-2014 23:55:00 17.4 C 10.08 g/m*3 17.4 C 0 km/h
1128 04-07-2014 00:00:00 17.3 C 9.87 g/m*3 17.3 C 0 km/h
1129 04-07-2014 00:05:00 17.2 C 9.81 g/m*3 17.2 C 0 km/h
1130 04-07-2014 00:10:00 17.1 C 9.9 g/m*3 17.1 C 0 km/h
1131 04-07-2014 00:15:00 17.1 C 9.75 g/m*3 17.1 C 0 km/h
1132 04-07-2014 00:20:00 17 C 9.84 g/m*3 17 C 0 km/h
1133 04-07-2014 00:25:00 16.9 C 9.78 g/m*3 16.9 C 0 km/h
1134 04-07-2014 00:30:00 16.9 C 9.92 g/m*3 16.9 C 0 km/h
1135 04-07-2014 00:35:00 16.8 C 10.01 g/m*3 16.8 C 0 km/h
1136 04-07-2014 00:40:00 16.7 C 9.81 g/m*3 16.7 C 0 km/h
1137 04-07-2014 00:45:00 16.6 C 9.75 g/m*3 16.6 C 0 km/h
1138 04-07-2014 00:50:00 16.5 C 9.69 g/m*3 16.5 C 0 km/h
1139 04-07-2014 00:55:00 16.3 C 9.71 g/m*3 16.3 C 0 km/h
1140 04-07-2014 01:00:00 16.3 C 9.85 g/m*3 16.3 C 0 km/h
1141 04-07-2014 01:05:00 16.1 C 9.73 g/m*3 16.1 C 0 km/h
1142 04-07-2014 01:10:00 16.1 C 9.73 g/m*3 16.1 C 0 km/h
1143 04-07-2014 01:15:00 15.9 C 9.75 g/m*3 15.9 C 0 km/h
1144 04-07-2014 01:20:00 15.9 C 9.75 g/m*3 15.9 C 0 km/h
1145 04-07-2014 01:25:00 15.8 C 9.69 g/m*3 15.8 C 0 km/h
1146 04-07-2014 01:30:00 15.7 C 9.77 g/m*3 15.7 C 0 km/h
1147 04-07-2014 01:35:00 15.6 C 9.71 g/m*3 15.6 C 0 km/h
1148 04-07-2014 01:40:00 15.4 C 9.72 g/m*3 15.4 C 0 km/h
1149 04-07-2014 01:45:00 15.3 C 9.79 g/m*3 15.3 C 0 km/h
1150 04-07-2014 01:50:00 15.2 C 9.73 g/m*3 15.2 C 0 km/h
Sensor: Nr:Datum:Temp:Abs-Feuchte:Windchill:Wind:
Aussen-T/F 1151 04-07-2014 01:55:00 15.1 C 9.68 g/m*3 15.1 C 0 km/h
1152 04-07-2014 02:00:00 15 C 9.62 g/m*3 15 C 0 km/h
1153 04-07-2014 02:05:00 14.9 C 9.56 g/m*3 14.9 C 0 km/h
1154 04-07-2014 02:10:00 14.8 C 9.5 g/m*3 14.8 C 0 km/h
1155 04-07-2014 02:15:00 14.8 C 9.63 g/m*3 14.8 C 0 km/h
1156 04-07-2014 02:20:00 14.7 C 9.57 g/m*3 14.7 C 0 km/h
1157 04-07-2014 02:25:00 14.6 C 9.64 g/m*3 14.6 C 0 km/h
1158 04-07-2014 02:30:00 14.6 C 9.64 g/m*3 14.6 C 0 km/h
1159 04-07-2014 02:35:00 14.4 C 9.52 g/m*3 14.4 C 0 km/h
1160 04-07-2014 02:40:00 14.3 C 9.58 g/m*3 14.3 C 0 km/h
1161 04-07-2014 02:45:00 14.3 C 9.58 g/m*3 14.3 C 0 km/h
1162 04-07-2014 02:50:00 14.3 C 9.58 g/m*3 14.3 C 0 km/h
1163 04-07-2014 02:55:00 14.3 C 9.71 g/m*3 14.3 C 0 km/h
1164 04-07-2014 03:00:00 14.2 C 9.52 g/m*3 14.2 C 0 km/h
1165 04-07-2014 03:05:00 14.2 C 9.65 g/m*3 14.2 C 0 km/h
1166 04-07-2014 03:10:00 14.2 C 9.77 g/m*3 14.2 C 0 km/h
1167 04-07-2014 03:15:00 14 C 9.65 g/m*3 14 C 0 km/h
1168 04-07-2014 03:20:00 13.8 C 9.65 g/m*3 13.8 C 0 km/h
1169 04-07-2014 03:25:00 13.8 C 9.65 g/m*3 13.8 C 0 km/h
1170 04-07-2014 03:30:00 13.7 C 9.59 g/m*3 13.7 C 0 km/h
1171 04-07-2014 03:35:00 13.6 C 9.53 g/m*3 13.6 C 0 km/h
1172 04-07-2014 03:40:00 13.5 C 9.47 g/m*3 13.5 C 0 km/h
1173 04-07-2014 03:45:00 13.5 C 9.47 g/m*3 13.5 C 0 km/h
1174 04-07-2014 03:50:00 13.4 C 9.53 g/m*3 13.4 C 0 km/h
1175 04-07-2014 03:55:00 13.4 C 9.53 g/m*3 13.4 C 0 km/h
Sensor: Nr:Datum:Temp:Abs-Feuchte:Windchill:Wind:
Aussen-T/F 1176 04-07-2014 04:00:00 13.4 C 9.53 g/m*3 13.4 C 0 km/h
1177 04-07-2014 04:05:00 13.3 C 9.47 g/m*3 13.3 C 0 km/h
1178 04-07-2014 04:10:00 13.3 C 9.59 g/m*3 13.3 C 0 km/h
1179 04-07-2014 04:15:00 13.3 C 9.59 g/m*3 13.3 C 0 km/h
1180 04-07-2014 04:20:00 13.3 C 9.59 g/m*3 13.3 C 3.2 km/h
1181 04-07-2014 04:25:00 13.4 C 9.65 g/m*3 13.4 C 0 km/h
1182 04-07-2014 04:30:00 13.3 C 9.59 g/m*3 13.3 C 0 km/h
1183 04-07-2014 04:35:00 13.3 C 9.59 g/m*3 13.3 C 0 km/h
1184 04-07-2014 04:40:00 13.2 C 9.53 g/m*3 13.2 C 1.6 km/h
1185 04-07-2014 04:45:00 13.1 C 9.59 g/m*3 13.1 C 0 km/h
1186 04-07-2014 04:50:00 13.1 C 9.59 g/m*3 13.1 C 0 km/h
1187 04-07-2014 04:55:00 13 C 9.53 g/m*3 13 C 0 km/h
1188 04-07-2014 05:00:00 12.9 C 9.47 g/m*3 12.9 C 0 km/h
1189 04-07-2014 05:05:00 12.9 C 9.47 g/m*3 12.9 C 0 km/h
1190 04-07-2014 05:10:00 12.8 C 9.52 g/m*3 12.8 C 0 km/h
1191 04-07-2014 05:15:00 12.7 C 9.46 g/m*3 12.7 C 0 km/h
1192 04-07-2014 05:20:00 12.7 C 9.57 g/m*3 12.7 C 0 km/h
1193 04-07-2014 05:25:00 12.6 C 9.51 g/m*3 12.6 C 0 km/h
1194 04-07-2014 05:30:00 12.5 C 9.57 g/m*3 12.5 C 1.6 km/h
1195 04-07-2014 05:35:00 12.4 C 9.51 g/m*3 12.4 C 0 km/h
1196 04-07-2014 05:40:00 12.4 C 9.51 g/m*3 12.4 C 0 km/h
1197 04-07-2014 05:45:00 12.4 C 9.51 g/m*3 12.4 C 0 km/h
1198 04-07-2014 05:50:00 12.3 C 9.45 g/m*3 12.3 C 0 km/h
1199 04-07-2014 05:55:00 12.3 C 9.45 g/m*3 12.3 C 0 km/h
1200 04-07-2014 06:00:00 12.3 C 9.45 g/m*3 12.3 C 0 km/h
Sensor: Nr:Datum:Temp:Abs-Feuchte:Windchill:Wind:
Aussen-T/F 1201 04-07-2014 06:05:00 12.3 C 9.56 g/m*3 12.3 C 0 km/h
1202 04-07-2014 06:10:00 12.3 C 9.56 g/m*3 12.3 C 0 km/h
1203 04-07-2014 06:15:00 12.3 C 9.56 g/m*3 12.3 C 0 km/h
1204 04-07-2014 06:20:00 12.2 C 9.5 g/m*3 12.2 C 0 km/h
1205 04-07-2014 06:25:00 12.2 C 9.5 g/m*3 12.2 C 0 km/h
1206 04-07-2014 06:30:00 12.3 C 9.66 g/m*3 12.3 C 0 km/h
1207 04-07-2014 06:35:00 12.3 C 9.66 g/m*3 12.3 C 0 km/h
1208 04-07-2014 06:40:00 12.3 C 9.66 g/m*3 12.3 C 0 km/h
1209 04-07-2014 06:45:00 12.3 C 9.66 g/m*3 12.3 C 0 km/h
1210 04-07-2014 06:50:00 12.4 C 9.62 g/m*3 12.4 C 0 km/h
1211 04-07-2014 06:55:00 12.5 C 9.68 g/m*3 12.5 C 0 km/h
1212 04-07-2014 07:00:00 12.6 C 9.85 g/m*3 12.6 C 0 km/h
1213 04-07-2014 07:05:00 12.6 C 9.85 g/m*3 12.6 C 0 km/h
1214 04-07-2014 07:10:00 12.7 C 9.91 g/m*3 12.7 C 0 km/h
1215 04-07-2014 07:15:00 12.7 C 9.8 g/m*3 12.7 C 0 km/h
1216 04-07-2014 07:20:00 12.8 C 9.97 g/m*3 12.8 C 0 km/h
1217 04-07-2014 07:25:00 12.9 C 10.03 g/m*3 12.9 C 0 km/h
1218 04-07-2014 07:30:00 13 C 9.98 g/m*3 13 C 0 km/h
1219 04-07-2014 07:35:00 13.1 C 10.16 g/m*3 13.1 C 0 km/h
1220 04-07-2014 07:40:00 13.2 C 10.1 g/m*3 13.2 C 0 km/h
1221 04-07-2014 07:45:00 13.3 C 10.28 g/m*3 13.3 C 0 km/h
1222 04-07-2014 07:50:00 13.4 C 10.23 g/m*3 13.4 C 0 km/h
1223 04-07-2014 07:55:00 13.7 C 10.3 g/m*3 13.7 C 0 km/h
1224 04-07-2014 08:00:00 14.1 C 10.56 g/m*3 14.1 C 0 km/h
1225 04-07-2014 08:05:00 14.4 C 10.51 g/m*3 14.4 C 0 km/h
Sensor: Nr:Datum:Temp:Abs-Feuchte:Windchill:Wind:
Aussen-T/F 1226 04-07-2014 08:10:00 14.8 C 10.77 g/m*3 14.8 C 0 km/h
1227 04-07-2014 08:15:00 15.2 C 10.9 g/m*3 15.2 C 0 km/h
1228 04-07-2014 08:20:00 15.6 C 10.77 g/m*3 15.6 C 0 km/h
1229 04-07-2014 08:25:00 15.9 C 10.83 g/m*3 15.9 C 0 km/h
1230 04-07-2014 08:30:00 16.2 C 10.89 g/m*3 16.2 C 0 km/h
1231 04-07-2014 08:35:00 16.5 C 10.95 g/m*3 16.5 C 0 km/h
1232 04-07-2014 08:40:00 16.8 C 11.15 g/m*3 16.8 C 0 km/h
1233 04-07-2014 08:45:00 17.2 C 11.13 g/m*3 17.2 C 0 km/h
1234 04-07-2014 08:50:00 17.3 C 11.2 g/m*3 17.3 C 0 km/h
1235 04-07-2014 08:55:00 17.5 C 11.18 g/m*3 17.5 C 0 km/h
1236 04-07-2014 09:00:00 17.6 C 11.1 g/m*3 17.6 C 0 km/h
1237 04-07-2014 09:05:00 17.8 C 11.23 g/m*3 17.8 C 0 km/h
1238 04-07-2014 09:10:00 17.9 C 11.3 g/m*3 17.9 C 0 km/h
1239 04-07-2014 09:15:00 17.9 C 11.3 g/m*3 17.9 C 0 km/h
1240 04-07-2014 09:20:00 17.8 C 11.38 g/m*3 17.8 C 0 km/h
1241 04-07-2014 09:25:00 17.7 C 11.62 g/m*3 17.7 C 0 km/h
1242 04-07-2014 09:30:00 17.7 C 11.62 g/m*3 17.7 C 0 km/h
1243 04-07-2014 09:35:00 17.9 C 11.45 g/m*3 17.9 C 0 km/h
1244 04-07-2014 09:40:00 18.1 C 11.9 g/m*3 18.1 C 0 km/h
1245 04-07-2014 09:45:00 18.1 C 11.9 g/m*3 18.1 C 0 km/h
1246 04-07-2014 09:50:00 18.2 C 11.97 g/m*3 18.2 C 0 km/h
1247 04-07-2014 09:55:00 18.3 C 12.2 g/m*3 18.3 C 0 km/h
1248 04-07-2014 10:00:00 18.7 C 12.33 g/m*3 18.7 C 0 km/h
1249 04-07-2014 10:05:00 19.2 C 12.37 g/m*3 19.2 C 1.6 km/h
1250 04-07-2014 10:10:00 19.6 C 12.83 g/m*3 19.6 C 0 km/h
Sensor: Nr:Datum:Temp:Abs-Feuchte:Windchill:Wind:
Aussen-T/F 1251 04-07-2014 10:15:00 20 C 12.79 g/m*3 20 C 0 km/h
1252 04-07-2014 10:20:00 20.4 C 12.91 g/m*3 20.4 C 0 km/h
1253 04-07-2014 10:25:00 20.7 C 13.14 g/m*3 20.7 C 3.2 km/h
1254 04-07-2014 10:30:00 21 C 13.19 g/m*3 21 C 1.6 km/h
1255 04-07-2014 10:35:00 21.1 C 13.08 g/m*3 21.1 C 0 km/h
1256 04-07-2014 10:40:00 21.2 C 13.34 g/m*3 21.2 C 0 km/h
1257 04-07-2014 10:45:00 21.3 C 13.23 g/m*3 21.3 C 0 km/h
1258 04-07-2014 10:50:00 21.6 C 13.47 g/m*3 21.6 C 1.6 km/h
1259 04-07-2014 10:55:00 21.8 C 13.62 g/m*3 21.8 C 0 km/h
1260 04-07-2014 11:00:00 22.1 C 13.47 g/m*3 22.1 C 1.6 km/h
1261 04-07-2014 11:05:00 22.3 C 13.62 g/m*3 22.3 C 4.8 km/h
1262 04-07-2014 11:10:00 22.5 C 13.78 g/m*3 22.5 C 1.6 km/h
1263 04-07-2014 11:15:00 22.8 C 13.82 g/m*3 22.8 C 0 km/h
1264 04-07-2014 11:20:00 23 C 14.39 g/m*3 23 C 3.2 km/h
1265 04-07-2014 11:25:00 23.2 C 14.14 g/m*3 23.2 C 1.6 km/h
1266 04-07-2014 11:30:00 23.6 C 14.25 g/m*3 23.6 C 0 km/h
1267 04-07-2014 11:35:00 23.9 C 14.28 g/m*3 23.9 C 1.6 km/h
1268 04-07-2014 11:40:00 24.7 C 13.58 g/m*3 24.7 C 6.4 km/h
1269 04-07-2014 11:45:00 25.2 C 14.2 g/m*3 25.2 C 4.8 km/h
1270 04-07-2014 11:50:00 25.8 C 13 g/m*3 25.8 C 6.4 km/h
1271 04-07-2014 11:55:00 26.5 C 13.52 g/m*3 26.5 C 4.8 km/h
1272 04-07-2014 12:00:00 27.4 C 12.37 g/m*3 27.4 C 8.1 km/h
1273 04-07-2014 12:05:00 27.6 C 13.3 g/m*3 27.6 C 6.4 km/h
1274 04-07-2014 12:10:00 27.8 C 12.37 g/m*3 27.8 C 6.4 km/h
1275 04-07-2014 12:15:00 28.3 C 12.16 g/m*3 28.3 C 9.7 km/h
Sensor: Nr:Datum:Temp:Abs-Feuchte:Windchill:Wind:
Aussen-T/F 1276 04-07-2014 12:20:00 28.8 C 13.07 g/m*3 28.8 C 9.7 km/h
1277 04-07-2014 12:25:00 29 C 12.93 g/m*3 29 C 11.3 km/h
1278 04-07-2014 12:30:00 29.2 C 12.2 g/m*3 29.2 C 9.7 km/h
1279 04-07-2014 12:35:00 29.2 C 11.91 g/m*3 29.2 C 4.8 km/h
1280 04-07-2014 12:40:00 29.4 C 12.33 g/m*3 29.4 C 6.4 km/h
1281 04-07-2014 12:45:00 29.7 C 11.93 g/m*3 29.7 C 11.3 km/h
1282 04-07-2014 12:50:00 29.8 C 11.7 g/m*3 29.8 C 6.4 km/h
1283 04-07-2014 12:55:00 30 C 12.13 g/m*3 30 C 6.4 km/h
1284 04-07-2014 13:00:00 30.2 C 11.04 g/m*3 30.2 C 9.7 km/h
1285 04-07-2014 13:05:00 30.2 C 12.87 g/m*3 30.2 C 4.8 km/h
1286 04-07-2014 13:10:00 30.1 C 11.59 g/m*3 30.1 C 6.4 km/h
1287 04-07-2014 13:15:00 30.1 C 10.98 g/m*3 30.1 C 6.4 km/h
1288 04-07-2014 13:20:00 30.1 C 10.37 g/m*3 30.1 C 4.8 km/h
1289 04-07-2014 13:25:00 30.2 C 10.73 g/m*3 30.2 C 12.9 km/h
1290 04-07-2014 13:30:00 30.4 C 11.77 g/m*3 30.4 C 4.8 km/h
1291 04-07-2014 13:35:00 30.2 C 9.5 g/m*3 30.2 C 11.3 km/h
1292 04-07-2014 13:40:00 30.1 C 9.45 g/m*3 30.1 C 8.1 km/h
1293 04-07-2014 13:45:00 30.3 C 9.86 g/m*3 30.3 C 11.3 km/h
1294 04-07-2014 13:50:00 30.6 C 9.71 g/m*3 30.6 C 11.3 km/h
1295 04-07-2014 13:55:00 30.6 C 9.4 g/m*3 30.6 C 8.1 km/h
1296 04-07-2014 14:00:00 30.4 C 9.61 g/m*3 30.4 C 4.8 km/h
1297 04-07-2014 14:05:00 30.2 C 9.2 g/m*3 30.2 C 8.1 km/h
1298 04-07-2014 14:10:00 29.9 C 12.37 g/m*3 29.9 C 3.2 km/h
1299 04-07-2014 14:15:00 29.5 C 10.92 g/m*3 29.5 C 3.2 km/h
1300 04-07-2014 14:20:00 29.3 C 11.09 g/m*3 29.3 C 3.2 km/h
Sensor: Nr:Datum:Temp:Abs-Feuchte:Windchill:Wind:
Aussen-T/F 1301 04-07-2014 14:25:00 29.4 C 9.69 g/m*3 29.4 C 11.3 km/h
1302 04-07-2014 14:30:00 29.3 C 10.51 g/m*3 29.3 C 4.8 km/h
1303 04-07-2014 14:35:00 29.2 C 10.16 g/m*3 29.2 C 3.2 km/h
1304 04-07-2014 14:40:00 29.3 C 9.93 g/m*3 29.3 C 4.8 km/h
1305 04-07-2014 14:45:00 29.6 C 10.68 g/m*3 29.6 C 3.2 km/h
1306 04-07-2014 14:50:00 29.7 C 11.34 g/m*3 29.7 C 12.9 km/h
1307 04-07-2014 14:55:00 29.9 C 9.35 g/m*3 29.9 C 14.5 km/h
1308 04-07-2014 15:00:00 30.1 C 9.15 g/m*3 30.1 C 4.8 km/h
1309 04-07-2014 15:05:00 29.9 C 9.95 g/m*3 29.9 C 8.1 km/h
1310 04-07-2014 15:10:00 29.8 C 9.9 g/m*3 29.8 C 3.2 km/h
1311 04-07-2014 15:15:00 29.7 C 9.25 g/m*3 29.7 C 9.7 km/h
1312 04-07-2014 15:20:00 29.6 C 9.5 g/m*3 29.6 C 6.4 km/h
1313 04-07-2014 15:25:00 29.6 C 12.17 g/m*3 29.6 C 4.8 km/h
1314 04-07-2014 15:30:00 29.2 C 11.91 g/m*3 29.2 C 1.6 km/h
1315 04-07-2014 15:35:00 28.6 C 11.8 g/m*3 28.6 C 4.8 km/h
1316 04-07-2014 15:40:00 27.7 C 12.57 g/m*3 27.7 C 0 km/h
1317 04-07-2014 15:45:00 26.8 C 13.74 g/m*3 26.8 C 0 km/h
1318 04-07-2014 15:50:00 26 C 14.12 g/m*3 26 C 1.6 km/h
1319 04-07-2014 15:55:00 25.3 C 13.81 g/m*3 25.3 C 1.6 km/h
1320 04-07-2014 16:00:00 24.4 C 13.35 g/m*3 24.4 C 1.6 km/h
1321 04-07-2014 16:05:00 23.8 C 13.55 g/m*3 23.8 C 1.6 km/h
1322 04-07-2014 16:10:00 23.2 C 13.51 g/m*3 23.2 C 1.6 km/h
1323 04-07-2014 16:15:00 22.8 C 12.8 g/m*3 22.8 C 1.6 km/h
1324 04-07-2014 16:20:00 22.7 C 13.33 g/m*3 22.7 C 1.6 km/h
1325 04-07-2014 16:25:00 22.7 C 13.54 g/m*3 22.7 C 1.6 km/h
Sensor: Nr:Datum:Temp:Abs-Feuchte:Windchill:Wind:
Aussen-T/F 1326 04-07-2014 16:30:00 22.8 C 13.82 g/m*3 22.8 C 0 km/h
1327 04-07-2014 16:35:00 23.1 C 13.85 g/m*3 23.1 C 0 km/h
1328 04-07-2014 16:40:00 23.7 C 12.83 g/m*3 23.7 C 4.8 km/h
1329 04-07-2014 16:45:00 24.7 C 11.77 g/m*3 24.7 C 1.6 km/h
1330 04-07-2014 16:50:00 25.8 C 12.28 g/m*3 25.8 C 1.6 km/h
1331 04-07-2014 16:55:00 26.7 C 13.92 g/m*3 26.7 C 4.8 km/h
1332 04-07-2014 17:00:00 27.1 C 11.13 g/m*3 27.1 C 6.4 km/h
1333 04-07-2014 17:05:00 27.1 C 13.97 g/m*3 27.1 C 3.2 km/h
1334 04-07-2014 17:10:00 26.5 C 13.52 g/m*3 26.5 C 1.6 km/h
1335 04-07-2014 17:15:00 26.1 C 13.95 g/m*3 26.1 C 1.6 km/h
1336 04-07-2014 17:20:00 25.9 C 14.28 g/m*3 25.9 C 0 km/h
1337 04-07-2014 17:25:00 25.9 C 13.32 g/m*3 25.9 C 3.2 km/h
1338 04-07-2014 17:30:00 26 C 12.66 g/m*3 26 C 4.8 km/h
1339 04-07-2014 17:35:00 26.1 C 12.24 g/m*3 26.1 C 4.8 km/h
1340 04-07-2014 17:40:00 26.5 C 12.02 g/m*3 26.5 C 3.2 km/h
1341 04-07-2014 17:45:00 27.3 C 11.25 g/m*3 27.3 C 9.7 km/h
1342 04-07-2014 17:50:00 28.2 C 12.1 g/m*3 28.2 C 9.7 km/h
1343 04-07-2014 17:55:00 28.6 C 12.93 g/m*3 28.6 C 6.4 km/h
1344 04-07-2014 18:00:00 27.9 C 12.17 g/m*3 27.9 C 3.2 km/h
1345 04-07-2014 18:05:00 27.8 C 11.83 g/m*3 27.8 C 6.4 km/h
1346 04-07-2014 18:10:00 28.4 C 11.67 g/m*3 28.4 C 9.7 km/h
1347 04-07-2014 18:15:00 28.8 C 11.36 g/m*3 28.8 C 4.8 km/h
1348 04-07-2014 18:20:00 28.7 C 13.56 g/m*3 28.7 C 1.6 km/h
1349 04-07-2014 18:25:00 28.1 C 13.67 g/m*3 28.1 C 3.2 km/h
1350 04-07-2014 18:30:00 27.4 C 13.42 g/m*3 27.4 C 1.6 km/h
Sensor: Nr:Datum:Temp:Abs-Feuchte:Windchill:Wind:
Aussen-T/F 1351 04-07-2014 18:35:00 26.5 C 14.02 g/m*3 26.5 C 0 km/h
1352 04-07-2014 18:40:00 25.7 C 14.13 g/m*3 25.7 C 0 km/h
1353 04-07-2014 18:45:00 25.1 C 14.12 g/m*3 25.1 C 0 km/h
1354 04-07-2014 18:50:00 24.8 C 14.11 g/m*3 24.8 C 0 km/h
1355 04-07-2014 18:55:00 24.5 C 14.1 g/m*3 24.5 C 0 km/h
1356 04-07-2014 19:00:00 24.1 C 14.66 g/m*3 24.1 C 0 km/h
1357 04-07-2014 19:05:00 23.4 C 14.09 g/m*3 23.4 C 1.6 km/h
1358 04-07-2014 19:10:00 23 C 14.18 g/m*3 23 C 1.6 km/h
1359 04-07-2014 19:15:00 22.7 C 13.94 g/m*3 22.7 C 0 km/h
1360 04-07-2014 19:20:00 22.6 C 14.06 g/m*3 22.6 C 0 km/h
1361 04-07-2014 19:25:00 22.2 C 14.14 g/m*3 22.2 C 1.6 km/h
1362 04-07-2014 19:30:00 21.9 C 14.09 g/m*3 21.9 C 3.2 km/h
1363 04-07-2014 19:35:00 21.7 C 13.93 g/m*3 21.7 C 1.6 km/h
1364 04-07-2014 19:40:00 21.6 C 14.03 g/m*3 21.6 C 0 km/h
1365 04-07-2014 19:45:00 21.6 C 14.03 g/m*3 21.6 C 1.6 km/h
1366 04-07-2014 19:50:00 21.6 C 13.66 g/m*3 21.6 C 3.2 km/h
1367 04-07-2014 19:55:00 21.6 C 13.28 g/m*3 21.6 C 1.6 km/h
1368 04-07-2014 20:00:00 21.7 C 12.4 g/m*3 21.7 C 1.6 km/h
1369 04-07-2014 20:05:00 21.7 C 12.97 g/m*3 21.7 C 1.6 km/h
1370 04-07-2014 20:10:00 21.8 C 11.9 g/m*3 21.8 C 4.8 km/h
1371 04-07-2014 20:15:00 22.3 C 11.45 g/m*3 22.3 C 4.8 km/h
1372 04-07-2014 20:20:00 22.5 C 12.78 g/m*3 22.5 C 0 km/h
1373 04-07-2014 20:25:00 22.5 C 12.78 g/m*3 22.5 C 0 km/h
1374 04-07-2014 20:30:00 22.2 C 13.15 g/m*3 22.2 C 0 km/h
1375 04-07-2014 20:35:00 21.9 C 12.93 g/m*3 21.9 C 0 km/h
Sensor: Nr:Datum:Temp:Abs-Feuchte:Windchill:Wind:
Aussen-T/F 1376 04-07-2014 20:40:00 21.7 C 12.97 g/m*3 21.7 C 0 km/h
1377 04-07-2014 20:45:00 21.4 C 12.56 g/m*3 21.4 C 0 km/h
1378 04-07-2014 20:50:00 21.3 C 12.68 g/m*3 21.3 C 0 km/h
1379 04-07-2014 20:55:00 21.1 C 12.71 g/m*3 21.1 C 0 km/h
1380 04-07-2014 21:00:00 21.1 C 12.71 g/m*3 21.1 C 0 km/h
1381 04-07-2014 21:05:00 21.1 C 12.71 g/m*3 21.1 C 0 km/h
1382 04-07-2014 21:10:00 20.9 C 12.75 g/m*3 20.9 C 0 km/h
1383 04-07-2014 21:15:00 20.8 C 12.86 g/m*3 20.8 C 0 km/h
1384 04-07-2014 21:20:00 20.4 C 12.91 g/m*3 20.4 C 1.6 km/h
1385 04-07-2014 21:25:00 20.1 C 13.21 g/m*3 20.1 C 1.6 km/h
1386 04-07-2014 21:30:00 20 C 13.31 g/m*3 20 C 3.2 km/h
1387 04-07-2014 21:35:00 19.6 C 13.51 g/m*3 19.6 C 0 km/h
1388 04-07-2014 21:40:00 19.4 C 13.35 g/m*3 19.4 C 1.6 km/h
1389 04-07-2014 21:45:00 19.3 C 13.44 g/m*3 19.3 C 0 km/h
1390 04-07-2014 21:50:00 19.2 C 13.36 g/m*3 19.2 C 3.2 km/h
1391 04-07-2014 21:55:00 19.1 C 13.28 g/m*3 19.1 C 3.2 km/h
1392 04-07-2014 22:00:00 19.1 C 13.11 g/m*3 19.1 C 3.2 km/h
1393 04-07-2014 22:05:00 19.2 C 13.19 g/m*3 19.2 C 3.2 km/h
1394 04-07-2014 22:10:00 19.2 C 13.03 g/m*3 19.2 C 3.2 km/h
1395 04-07-2014 22:15:00 19.2 C 13.03 g/m*3 19.2 C 1.6 km/h
1396 04-07-2014 22:20:00 19.3 C 12.94 g/m*3 19.3 C 1.6 km/h
1397 04-07-2014 22:25:00 19.6 C 12.83 g/m*3 19.6 C 3.2 km/h
1398 04-07-2014 22:30:00 19.7 C 12.57 g/m*3 19.7 C 3.2 km/h
1399 04-07-2014 22:35:00 19.8 C 12.98 g/m*3 19.8 C 1.6 km/h
1400 04-07-2014 22:40:00 19.8 C 12.81 g/m*3 19.8 C 1.6 km/h
Sensor: Nr:Datum:Temp:Abs-Feuchte:Windchill:Wind:
Aussen-T/F 1401 04-07-2014 22:45:00 19.8 C 12.98 g/m*3 19.8 C 0 km/h
1402 04-07-2014 22:50:00 19.8 C 12.98 g/m*3 19.8 C 1.6 km/h
1403 04-07-2014 22:55:00 19.7 C 12.91 g/m*3 19.7 C 1.6 km/h
1404 04-07-2014 23:00:00 19.7 C 12.91 g/m*3 19.7 C 1.6 km/h
1405 04-07-2014 23:05:00 19.7 C 12.74 g/m*3 19.7 C 1.6 km/h
1406 04-07-2014 23:10:00 19.8 C 12.81 g/m*3 19.8 C 1.6 km/h
1407 04-07-2014 23:15:00 19.7 C 12.74 g/m*3 19.7 C 0 km/h
1408 04-07-2014 23:20:00 19.7 C 12.74 g/m*3 19.7 C 0 km/h
1409 04-07-2014 23:25:00 19.7 C 12.74 g/m*3 19.7 C 0 km/h
1410 04-07-2014 23:30:00 19.7 C 12.74 g/m*3 19.7 C 0 km/h
1411 04-07-2014 23:35:00 19.7 C 12.91 g/m*3 19.7 C 0 km/h
1412 04-07-2014 23:40:00 19.7 C 12.91 g/m*3 19.7 C 0 km/h
1413 04-07-2014 23:45:00 19.7 C 12.91 g/m*3 19.7 C 0 km/h
1414 04-07-2014 23:50:00 19.7 C 12.74 g/m*3 19.7 C 0 km/h
1415 04-07-2014 23:55:00 19.7 C 12.74 g/m*3 19.7 C 0 km/h
1416 05-07-2014 00:00:00 19.7 C 12.74 g/m*3 19.7 C 0 km/h
1417 05-07-2014 00:05:00 19.7 C 12.91 g/m*3 19.7 C 0 km/h
1418 05-07-2014 00:10:00 19.7 C 12.74 g/m*3 19.7 C 0 km/h
1419 05-07-2014 00:15:00 19.7 C 12.74 g/m*3 19.7 C 0 km/h
1420 05-07-2014 00:20:00 19.7 C 12.91 g/m*3 19.7 C 0 km/h
1421 05-07-2014 00:25:00 19.7 C 13.08 g/m*3 19.7 C 0 km/h
1422 05-07-2014 00:30:00 19.7 C 12.74 g/m*3 19.7 C 0 km/h
1423 05-07-2014 00:35:00 19.7 C 12.91 g/m*3 19.7 C 0 km/h
1424 05-07-2014 00:40:00 19.8 C 12.64 g/m*3 19.8 C 0 km/h
1425 05-07-2014 00:45:00 19.9 C 12.54 g/m*3 19.9 C 3.2 km/h
Sensor: Nr:Datum:Temp:Abs-Feuchte:Windchill:Wind:
Aussen-T/F 1426 05-07-2014 00:50:00 19.9 C 12.54 g/m*3 19.9 C 1.6 km/h
1427 05-07-2014 00:55:00 20 C 12.79 g/m*3 20 C 1.6 km/h
1428 05-07-2014 01:00:00 19.9 C 12.71 g/m*3 19.9 C 0 km/h
1429 05-07-2014 01:05:00 19.9 C 12.71 g/m*3 19.9 C 1.6 km/h
1430 05-07-2014 01:10:00 19.8 C 12.64 g/m*3 19.8 C 1.6 km/h
1431 05-07-2014 01:15:00 19.8 C 12.81 g/m*3 19.8 C 0 km/h
1432 05-07-2014 01:20:00 19.7 C 12.74 g/m*3 19.7 C 1.6 km/h
1433 05-07-2014 01:25:00 19.7 C 12.91 g/m*3 19.7 C 0 km/h
1434 05-07-2014 01:30:00 19.6 C 12.83 g/m*3 19.6 C 0 km/h
1435 05-07-2014 01:35:00 19.4 C 12.85 g/m*3 19.4 C 1.6 km/h
1436 05-07-2014 01:40:00 19.3 C 12.77 g/m*3 19.3 C 1.6 km/h
1437 05-07-2014 01:45:00 19.3 C 12.77 g/m*3 19.3 C 0 km/h
1438 05-07-2014 01:50:00 19.3 C 12.77 g/m*3 19.3 C 1.6 km/h
1439 05-07-2014 01:55:00 19.3 C 12.61 g/m*3 19.3 C 0 km/h
1440 05-07-2014 02:00:00 19.4 C 12.68 g/m*3 19.4 C 0 km/h
1441 05-07-2014 02:05:00 19.5 C 12.92 g/m*3 19.5 C 0 km/h
1442 05-07-2014 02:10:00 19.3 C 12.94 g/m*3 19.3 C 0 km/h
1443 05-07-2014 02:15:00 19.2 C 12.7 g/m*3 19.2 C 1.6 km/h
1444 05-07-2014 02:20:00 19.2 C 12.53 g/m*3 19.2 C 3.2 km/h
1445 05-07-2014 02:25:00 19.2 C 12.7 g/m*3 19.2 C 0 km/h
1446 05-07-2014 02:30:00 18.9 C 12.64 g/m*3 18.9 C 0 km/h
1447 05-07-2014 02:35:00 18.7 C 12.49 g/m*3 18.7 C 0 km/h
1448 05-07-2014 02:40:00 18.4 C 12.43 g/m*3 18.4 C 0 km/h
1449 05-07-2014 02:45:00 18.2 C 12.43 g/m*3 18.2 C 0 km/h
1450 05-07-2014 02:50:00 18.1 C 12.36 g/m*3 18.1 C 0 km/h
Sensor: Nr:Datum:Temp:Abs-Feuchte:Windchill:Wind:
Aussen-T/F 1451 05-07-2014 02:55:00 18 C 12.44 g/m*3 18 C 0 km/h
1452 05-07-2014 03:00:00 18 C 12.44 g/m*3 18 C 0 km/h
1453 05-07-2014 03:05:00 18.1 C 12.67 g/m*3 18.1 C 1.6 km/h
1454 05-07-2014 03:10:00 18.1 C 12.52 g/m*3 18.1 C 0 km/h
1455 05-07-2014 03:15:00 18.2 C 12.43 g/m*3 18.2 C 1.6 km/h
1456 05-07-2014 03:20:00 18.5 C 12.5 g/m*3 18.5 C 1.6 km/h
1457 05-07-2014 03:25:00 18.8 C 12.56 g/m*3 18.8 C 0 km/h
1458 05-07-2014 03:30:00 18.9 C 12.47 g/m*3 18.9 C 1.6 km/h
1459 05-07-2014 03:35:00 19.1 C 12.46 g/m*3 19.1 C 6.4 km/h
1460 05-07-2014 03:40:00 19.1 C 12.46 g/m*3 19.1 C 6.4 km/h
1461 05-07-2014 03:45:00 19.1 C 12.46 g/m*3 19.1 C 1.6 km/h
1462 05-07-2014 03:50:00 19.1 C 12.46 g/m*3 19.1 C 3.2 km/h
1463 05-07-2014 03:55:00 19.1 C 12.62 g/m*3 19.1 C 3.2 km/h
1464 05-07-2014 04:00:00 19 C 12.39 g/m*3 19 C 0 km/h
1465 05-07-2014 04:05:00 18.9 C 12.31 g/m*3 18.9 C 3.2 km/h
1466 05-07-2014 04:10:00 18.8 C 12.24 g/m*3 18.8 C 1.6 km/h
1467 05-07-2014 04:15:00 18.7 C 12.33 g/m*3 18.7 C 0 km/h
1468 05-07-2014 04:20:00 18.4 C 12.27 g/m*3 18.4 C 0 km/h
1469 05-07-2014 04:25:00 18.2 C 12.28 g/m*3 18.2 C 1.6 km/h
1470 05-07-2014 04:30:00 18.2 C 12.28 g/m*3 18.2 C 0 km/h
1471 05-07-2014 04:35:00 18.2 C 12.28 g/m*3 18.2 C 0 km/h
1472 05-07-2014 04:40:00 18.2 C 12.28 g/m*3 18.2 C 0 km/h
1473 05-07-2014 04:45:00 18.2 C 12.28 g/m*3 18.2 C 1.6 km/h
1474 05-07-2014 04:50:00 18.2 C 12.12 g/m*3 18.2 C 1.6 km/h
1475 05-07-2014 04:55:00 18.3 C 12.2 g/m*3 18.3 C 0 km/h
Sensor: Nr:Datum:Temp:Abs-Feuchte:Windchill:Wind:
Aussen-T/F 1476 05-07-2014 05:00:00 18.3 C 12.2 g/m*3 18.3 C 1.6 km/h
1477 05-07-2014 05:05:00 18.3 C 12.2 g/m*3 18.3 C 0 km/h
1478 05-07-2014 05:10:00 18.3 C 12.2 g/m*3 18.3 C 3.2 km/h
1479 05-07-2014 05:15:00 18.3 C 12.2 g/m*3 18.3 C 0 km/h
1480 05-07-2014 05:20:00 18.3 C 12.35 g/m*3 18.3 C 0 km/h
1481 05-07-2014 05:25:00 18.3 C 12.35 g/m*3 18.3 C 3.2 km/h
1482 05-07-2014 05:30:00 18.2 C 12.43 g/m*3 18.2 C 0 km/h
1483 05-07-2014 05:35:00 18.1 C 12.21 g/m*3 18.1 C 0 km/h
1484 05-07-2014 05:40:00 18.1 C 12.21 g/m*3 18.1 C 0 km/h
1485 05-07-2014 05:45:00 18.1 C 12.21 g/m*3 18.1 C 4.8 km/h
1486 05-07-2014 05:50:00 18.1 C 12.21 g/m*3 18.1 C 4.8 km/h
1487 05-07-2014 05:55:00 18.2 C 12.28 g/m*3 18.2 C 0 km/h
1488 05-07-2014 06:00:00 18.2 C 12.28 g/m*3 18.2 C 0 km/h
1489 05-07-2014 06:05:00 18.1 C 12.21 g/m*3 18.1 C 0 km/h
1490 05-07-2014 06:10:00 18.1 C 12.21 g/m*3 18.1 C 0 km/h
1491 05-07-2014 06:15:00 18.1 C 12.36 g/m*3 18.1 C 0 km/h
1492 05-07-2014 06:20:00 18.1 C 12.36 g/m*3 18.1 C 0 km/h
1493 05-07-2014 06:25:00 18 C 12.29 g/m*3 18 C 0 km/h
1494 05-07-2014 06:30:00 17.9 C 12.37 g/m*3 17.9 C 0 km/h
1495 05-07-2014 06:35:00 17.8 C 12.29 g/m*3 17.8 C 0 km/h
1496 05-07-2014 06:40:00 17.9 C 12.37 g/m*3 17.9 C 0 km/h
1497 05-07-2014 06:45:00 17.9 C 12.37 g/m*3 17.9 C 4.8 km/h
1498 05-07-2014 06:50:00 18.1 C 12.52 g/m*3 18.1 C 0 km/h
1499 05-07-2014 06:55:00 18.2 C 12.59 g/m*3 18.2 C 1.6 km/h
1500 05-07-2014 07:00:00 18.3 C 12.66 g/m*3 18.3 C 1.6 km/h
Sensor: Nr:Datum:Temp:Abs-Feuchte:Windchill:Wind:
Aussen-T/F 1501 05-07-2014 07:05:00 18.4 C 12.58 g/m*3 18.4 C 1.6 km/h
1502 05-07-2014 07:10:00 18.4 C 12.58 g/m*3 18.4 C 0 km/h
1503 05-07-2014 07:15:00 18.4 C 12.74 g/m*3 18.4 C 0 km/h
1504 05-07-2014 07:20:00 18.3 C 12.82 g/m*3 18.3 C 0 km/h
1505 05-07-2014 07:25:00 18.2 C 12.75 g/m*3 18.2 C 1.6 km/h
1506 05-07-2014 07:30:00 18.2 C 12.75 g/m*3 18.2 C 0 km/h
1507 05-07-2014 07:35:00 18.3 C 12.82 g/m*3 18.3 C 1.6 km/h
1508 05-07-2014 07:40:00 18.6 C 13.05 g/m*3 18.6 C 4.8 km/h
1509 05-07-2014 07:45:00 18.9 C 13.12 g/m*3 18.9 C 4.8 km/h
1510 05-07-2014 07:50:00 19.2 C 13.03 g/m*3 19.2 C 4.8 km/h
1511 05-07-2014 07:55:00 19.6 C 13.17 g/m*3 19.6 C 1.6 km/h
1512 05-07-2014 08:00:00 19.7 C 13.08 g/m*3 19.7 C 6.4 km/h
1513 05-07-2014 08:05:00 19.9 C 13.4 g/m*3 19.9 C 4.8 km/h
1514 05-07-2014 08:10:00 20.1 C 13.39 g/m*3 20.1 C 9.7 km/h
1515 05-07-2014 08:15:00 20.2 C 13.46 g/m*3 20.2 C 8.1 km/h
1516 05-07-2014 08:20:00 20.3 C 13.54 g/m*3 20.3 C 14.5 km/h
1517 05-07-2014 08:25:00 20.5 C 13.52 g/m*3 20.5 C 6.4 km/h
1518 05-07-2014 08:30:00 20.6 C 13.6 g/m*3 20.6 C 8.1 km/h
1519 05-07-2014 08:35:00 20.6 C 13.6 g/m*3 20.6 C 8.1 km/h
1520 05-07-2014 08:40:00 20.5 C 13.52 g/m*3 20.5 C 6.4 km/h
1521 05-07-2014 08:45:00 20.4 C 13.44 g/m*3 20.4 C 4.8 km/h
1522 05-07-2014 08:50:00 20.3 C 13.37 g/m*3 20.3 C 9.7 km/h
1523 05-07-2014 08:55:00 20.3 C 13.54 g/m*3 20.3 C 6.4 km/h
1524 05-07-2014 09:00:00 20.2 C 13.64 g/m*3 20.2 C 4.8 km/h
1525 05-07-2014 09:05:00 20.2 C 13.64 g/m*3 20.2 C 3.2 km/h
Sensor: Nr:Datum:Temp:Abs-Feuchte:Windchill:Wind:
Aussen-T/F 1526 05-07-2014 09:10:00 20.2 C 13.64 g/m*3 20.2 C 4.8 km/h
1527 05-07-2014 09:15:00 20.3 C 13.89 g/m*3 20.3 C 0 km/h
1528 05-07-2014 09:20:00 20.3 C 14.07 g/m*3 20.3 C 3.2 km/h
1529 05-07-2014 09:25:00 20.5 C 13.88 g/m*3 20.5 C 6.4 km/h
1530 05-07-2014 09:30:00 20.7 C 13.86 g/m*3 20.7 C 12.9 km/h
1531 05-07-2014 09:35:00 20.8 C 13.94 g/m*3 20.8 C 9.7 km/h
1532 05-07-2014 09:40:00 20.9 C 14.02 g/m*3 20.9 C 6.4 km/h
1533 05-07-2014 09:45:00 21.1 C 14 g/m*3 21.1 C 8.1 km/h
1534 05-07-2014 09:50:00 21.3 C 13.98 g/m*3 21.3 C 16.1 km/h
1535 05-07-2014 09:55:00 21.7 C 14.12 g/m*3 21.7 C 9.7 km/h
1536 05-07-2014 10:00:00 21.8 C 13.81 g/m*3 21.8 C 11.3 km/h
1537 05-07-2014 10:05:00 21.8 C 14.01 g/m*3 21.8 C 14.5 km/h
1538 05-07-2014 10:10:00 21.8 C 13.62 g/m*3 21.8 C 12.9 km/h
1539 05-07-2014 10:15:00 21.8 C 13.81 g/m*3 21.8 C 11.3 km/h
1540 05-07-2014 10:20:00 21.8 C 13.81 g/m*3 21.8 C 14.5 km/h
1541 05-07-2014 10:25:00 22.3 C 13.82 g/m*3 22.3 C 11.3 km/h
1542 05-07-2014 10:30:00 22.8 C 14.22 g/m*3 22.8 C 11.3 km/h
1543 05-07-2014 10:35:00 23.1 C 13.85 g/m*3 23.1 C 19.3 km/h
1544 05-07-2014 10:40:00 23.2 C 13.72 g/m*3 23.2 C 14.5 km/h
1545 05-07-2014 10:45:00 23.3 C 13.8 g/m*3 23.3 C 12.9 km/h
1546 05-07-2014 10:50:00 23.2 C 13.51 g/m*3 23.2 C 16.1 km/h
1547 05-07-2014 10:55:00 23 C 13.15 g/m*3 23 C 14.5 km/h
1548 05-07-2014 11:00:00 22.8 C 13.41 g/m*3 22.8 C 12.9 km/h
1549 05-07-2014 11:05:00 22.7 C 12.93 g/m*3 22.7 C 9.7 km/h
1550 05-07-2014 11:10:00 22.8 C 12.8 g/m*3 22.8 C 11.3 km/h
Sensor: Nr:Datum:Temp:Abs-Feuchte:Windchill:Wind:
Aussen-T/F 1551 05-07-2014 11:15:00 22.8 C 13 g/m*3 22.8 C 14.5 km/h
1552 05-07-2014 11:20:00 22.9 C 13.08 g/m*3 22.9 C 8.1 km/h
1553 05-07-2014 11:25:00 23 C 12.74 g/m*3 23 C 24.1 km/h
1554 05-07-2014 11:30:00 23.1 C 12.82 g/m*3 23.1 C 19.3 km/h
1555 05-07-2014 11:35:00 23 C 12.54 g/m*3 23 C 14.5 km/h
1556 05-07-2014 11:40:00 22.9 C 12.47 g/m*3 22.9 C 12.9 km/h
1557 05-07-2014 11:45:00 22.8 C 12.6 g/m*3 22.8 C 11.3 km/h
1558 05-07-2014 11:50:00 22.7 C 12.73 g/m*3 22.7 C 12.9 km/h
1559 05-07-2014 11:55:00 22.4 C 12.71 g/m*3 22.4 C 12.9 km/h
1560 05-07-2014 12:00:00 22.2 C 13.35 g/m*3 22.2 C 17.7 km/h
1561 05-07-2014 12:05:00 21.9 C 13.12 g/m*3 21.9 C 12.9 km/h
1562 05-07-2014 12:10:00 21.6 C 13.28 g/m*3 21.6 C 9.7 km/h
1563 05-07-2014 12:15:00 21.3 C 13.42 g/m*3 21.3 C 1.6 km/h
1564 05-07-2014 12:20:00 21.2 C 13.53 g/m*3 21.2 C 1.6 km/h
1565 05-07-2014 12:25:00 21 C 13.74 g/m*3 21 C 0 km/h
1566 05-07-2014 12:30:00 21 C 14.65 g/m*3 21 C 0 km/h
1567 05-07-2014 12:35:00 21 C 13.92 g/m*3 21 C 3.2 km/h
1568 05-07-2014 12:40:00 21.1 C 14.56 g/m*3 21.1 C 0 km/h
1569 05-07-2014 12:45:00 21.1 C 14.19 g/m*3 21.1 C 12.9 km/h
1570 05-07-2014 12:50:00 20.9 C 14.02 g/m*3 20.9 C 9.7 km/h
1571 05-07-2014 12:55:00 20.8 C 14.3 g/m*3 20.8 C 3.2 km/h
1572 05-07-2014 13:00:00 20.8 C 14.3 g/m*3 20.8 C 0 km/h
1573 05-07-2014 13:05:00 20.7 C 14.22 g/m*3 20.7 C 1.6 km/h
1574 05-07-2014 13:10:00 20.7 C 14.58 g/m*3 20.7 C 3.2 km/h
1575 05-07-2014 13:15:00 20.8 C 14.67 g/m*3 20.8 C 1.6 km/h
Sensor: Nr:Datum:Temp:Abs-Feuchte:Windchill:Wind:
Aussen-T/F 1576 05-07-2014 13:20:00 20.9 C 14.93 g/m*3 20.9 C 4.8 km/h
1577 05-07-2014 13:25:00 20.8 C 15.03 g/m*3 20.8 C 4.8 km/h
1578 05-07-2014 13:30:00 20.6 C 14.68 g/m*3 20.6 C 1.6 km/h
1579 05-07-2014 13:35:00 20.4 C 14.51 g/m*3 20.4 C 4.8 km/h
1580 05-07-2014 13:40:00 20.2 C 14.51 g/m*3 20.2 C 6.4 km/h
1581 05-07-2014 13:45:00 20.2 C 14.69 g/m*3 20.2 C 3.2 km/h
1582 05-07-2014 13:50:00 20.2 C 14.69 g/m*3 20.2 C 1.6 km/h
1583 05-07-2014 14:10:00 20.2 C 14.86 g/m*3 20.2 C 3.2 km/h
1584 05-07-2014 14:15:00 20.2 C 15.21 g/m*3 20.2 C 6.4 km/h
1585 05-07-2014 14:20:00 20.2 C 15.04 g/m*3 20.2 C 9.7 km/h
1586 05-07-2014 14:25:00 20.2 C 14.86 g/m*3 20.2 C 8.1 km/h
1587 05-07-2014 14:30:00 20.4 C 15.04 g/m*3 20.4 C 4.8 km/h
1588 05-07-2014 14:35:00 20.6 C 15.03 g/m*3 20.6 C 8.1 km/h
1589 05-07-2014 14:40:00 20.8 C 15.03 g/m*3 20.8 C 11.3 km/h
1590 05-07-2014 14:45:00 20.9 C 14.93 g/m*3 20.9 C 11.3 km/h
1591 05-07-2014 14:50:00 21 C 15.02 g/m*3 21 C 8.1 km/h
1592 05-07-2014 14:55:00 21.2 C 15.57 g/m*3 21.2 C 9.7 km/h
1593 05-07-2014 15:00:00 21.4 C 14.81 g/m*3 21.4 C 4.8 km/h
1594 05-07-2014 15:05:00 21.4 C 15 g/m*3 21.4 C 9.7 km/h
1595 05-07-2014 15:10:00 21.4 C 15.19 g/m*3 21.4 C 4.8 km/h
1596 05-07-2014 15:15:00 21.3 C 14.91 g/m*3 21.3 C 1.6 km/h
1597 05-07-2014 15:20:00 21.2 C 15.38 g/m*3 21.2 C 1.6 km/h
1598 05-07-2014 15:25:00 21.2 C 14.83 g/m*3 21.2 C 12.9 km/h
1599 05-07-2014 15:30:00 21.2 C 14.64 g/m*3 21.2 C 8.1 km/h
1600 05-07-2014 15:35:00 21.1 C 14.19 g/m*3 21.1 C 17.7 km/h
Sensor: Nr:Datum:Temp:Abs-Feuchte:Windchill:Wind:
Aussen-T/F 1601 05-07-2014 15:40:00 21.1 C 14.56 g/m*3 21.1 C 9.7 km/h
1602 05-07-2014 15:45:00 21.1 C 14.56 g/m*3 21.1 C 11.3 km/h
1603 05-07-2014 15:50:00 21.1 C 14.56 g/m*3 21.1 C 11.3 km/h
1604 05-07-2014 15:55:00 21.3 C 14.54 g/m*3 21.3 C 9.7 km/h
1605 05-07-2014 16:00:00 21.3 C 14.54 g/m*3 21.3 C 12.9 km/h
1606 05-07-2014 16:05:00 21.4 C 14.44 g/m*3 21.4 C 11.3 km/h
1607 05-07-2014 16:10:00 21.6 C 14.6 g/m*3 21.6 C 22.5 km/h
1608 05-07-2014 16:15:00 21.6 C 14.6 g/m*3 21.6 C 19.3 km/h
1609 05-07-2014 16:20:00 21.7 C 14.5 g/m*3 21.7 C 9.7 km/h
1610 05-07-2014 16:25:00 21.8 C 14.58 g/m*3 21.8 C 11.3 km/h
1611 05-07-2014 16:30:00 21.9 C 14.67 g/m*3 21.9 C 9.7 km/h
1612 05-07-2014 16:35:00 22 C 14.56 g/m*3 22 C 8.1 km/h
1613 05-07-2014 16:40:00 22.1 C 14.64 g/m*3 22.1 C 11.3 km/h
1614 05-07-2014 16:45:00 22.2 C 14.53 g/m*3 22.2 C 12.9 km/h
1615 05-07-2014 16:50:00 22.2 C 14.53 g/m*3 22.2 C 14.5 km/h
1616 05-07-2014 16:55:00 22.1 C 14.45 g/m*3 22.1 C 16.1 km/h
1617 05-07-2014 17:00:00 21.9 C 14.28 g/m*3 21.9 C 12.9 km/h
1618 05-07-2014 17:05:00 21.8 C 14.2 g/m*3 21.8 C 6.4 km/h
1619 05-07-2014 17:10:00 21.8 C 14.39 g/m*3 21.8 C 12.9 km/h
1620 05-07-2014 17:15:00 21.9 C 14.67 g/m*3 21.9 C 11.3 km/h
1621 05-07-2014 17:20:00 22.6 C 15.07 g/m*3 22.6 C 9.7 km/h
1622 05-07-2014 17:25:00 23.1 C 14.68 g/m*3 23.1 C 16.1 km/h
1623 05-07-2014 17:30:00 22.9 C 14.51 g/m*3 22.9 C 14.5 km/h
1624 05-07-2014 17:35:00 22.8 C 14.43 g/m*3 22.8 C 22.5 km/h
1625 05-07-2014 17:40:00 22.7 C 14.34 g/m*3 22.7 C 12.9 km/h
Sensor: Nr:Datum:Temp:Abs-Feuchte:Windchill:Wind:
Aussen-T/F 1626 05-07-2014 17:45:00 22.7 C 14.75 g/m*3 22.7 C 8.1 km/h
1627 05-07-2014 17:50:00 22.6 C 14.46 g/m*3 22.6 C 14.5 km/h
1628 05-07-2014 17:55:00 22.6 C 14.46 g/m*3 22.6 C 16.1 km/h
1629 05-07-2014 18:00:00 22.7 C 14.75 g/m*3 22.7 C 17.7 km/h
1630 05-07-2014 18:05:00 22.7 C 14.55 g/m*3 22.7 C 16.1 km/h
1631 05-07-2014 18:10:00 22.6 C 14.46 g/m*3 22.6 C 16.1 km/h
1632 05-07-2014 18:15:00 22.6 C 14.66 g/m*3 22.6 C 14.5 km/h
1633 05-07-2014 18:20:00 22.5 C 14.38 g/m*3 22.5 C 14.5 km/h
1634 05-07-2014 18:25:00 22.3 C 14.41 g/m*3 22.3 C 16.1 km/h
1635 05-07-2014 18:30:00 22.2 C 14.33 g/m*3 22.2 C 8.1 km/h
1636 05-07-2014 18:35:00 22.2 C 14.53 g/m*3 22.2 C 9.7 km/h
1637 05-07-2014 18:40:00 22 C 14.36 g/m*3 22 C 12.9 km/h
1638 05-07-2014 18:45:00 21.9 C 14.47 g/m*3 21.9 C 9.7 km/h
1639 05-07-2014 18:50:00 21.8 C 14.39 g/m*3 21.8 C 8.1 km/h
1640 05-07-2014 18:55:00 21.7 C 14.5 g/m*3 21.7 C 11.3 km/h
1641 05-07-2014 19:00:00 21.6 C 14.41 g/m*3 21.6 C 4.8 km/h
1642 05-07-2014 19:05:00 21.6 C 14.6 g/m*3 21.6 C 11.3 km/h
1643 05-07-2014 19:10:00 21.6 C 14.6 g/m*3 21.6 C 9.7 km/h
1644 05-07-2014 19:15:00 21.6 C 14.6 g/m*3 21.6 C 11.3 km/h
1645 05-07-2014 19:20:00 21.5 C 14.52 g/m*3 21.5 C 9.7 km/h
1646 05-07-2014 19:25:00 21.4 C 14.44 g/m*3 21.4 C 9.7 km/h
1647 05-07-2014 19:30:00 21.4 C 14.44 g/m*3 21.4 C 16.1 km/h
1648 05-07-2014 19:35:00 21.3 C 14.54 g/m*3 21.3 C 4.8 km/h
1649 05-07-2014 19:40:00 21.3 C 14.73 g/m*3 21.3 C 8.1 km/h
1650 05-07-2014 19:45:00 21.3 C 14.73 g/m*3 21.3 C 11.3 km/h
Sensor: Nr:Datum:Temp:Abs-Feuchte:Windchill:Wind:
Aussen-T/F 1651 05-07-2014 19:50:00 21.3 C 14.54 g/m*3 21.3 C 6.4 km/h
1652 05-07-2014 19:55:00 21.3 C 14.73 g/m*3 21.3 C 3.2 km/h
1653 05-07-2014 20:00:00 21.3 C 14.54 g/m*3 21.3 C 4.8 km/h
1654 05-07-2014 20:05:00 21.3 C 14.54 g/m*3 21.3 C 6.4 km/h
1655 05-07-2014 20:10:00 21.3 C 14.54 g/m*3 21.3 C 6.4 km/h
1656 05-07-2014 20:15:00 21.2 C 14.64 g/m*3 21.2 C 6.4 km/h
1657 05-07-2014 20:20:00 21.2 C 14.64 g/m*3 21.2 C 8.1 km/h
1658 05-07-2014 20:25:00 21.1 C 14.56 g/m*3 21.1 C 6.4 km/h
1659 05-07-2014 20:30:00 21.1 C 14.74 g/m*3 21.1 C 14.5 km/h
1660 05-07-2014 20:35:00 21 C 14.65 g/m*3 21 C 11.3 km/h
1661 05-07-2014 20:40:00 20.9 C 14.57 g/m*3 20.9 C 12.9 km/h
1662 05-07-2014 20:45:00 20.9 C 14.75 g/m*3 20.9 C 9.7 km/h
1663 05-07-2014 20:50:00 20.8 C 14.67 g/m*3 20.8 C 8.1 km/h
1664 05-07-2014 20:55:00 20.8 C 14.67 g/m*3 20.8 C 4.8 km/h
1665 05-07-2014 21:00:00 20.7 C 14.58 g/m*3 20.7 C 3.2 km/h
1666 05-07-2014 21:05:00 20.7 C 14.58 g/m*3 20.7 C 4.8 km/h
1667 05-07-2014 21:10:00 20.6 C 14.5 g/m*3 20.6 C 4.8 km/h
1668 05-07-2014 21:15:00 20.6 C 14.5 g/m*3 20.6 C 3.2 km/h
1669 05-07-2014 21:20:00 20.6 C 14.5 g/m*3 20.6 C 8.1 km/h
1670 05-07-2014 21:25:00 20.6 C 14.5 g/m*3 20.6 C 6.4 km/h
1671 05-07-2014 21:30:00 20.6 C 14.5 g/m*3 20.6 C 3.2 km/h
1672 05-07-2014 21:35:00 20.5 C 14.41 g/m*3 20.5 C 9.7 km/h
1673 05-07-2014 21:40:00 20.5 C 14.59 g/m*3 20.5 C 4.8 km/h
1674 05-07-2014 21:45:00 20.4 C 14.33 g/m*3 20.4 C 8.1 km/h
1675 05-07-2014 21:50:00 20.4 C 14.33 g/m*3 20.4 C 6.4 km/h
Sensor: Nr:Datum:Temp:Abs-Feuchte:Windchill:Wind:
Aussen-T/F 1676 05-07-2014 21:55:00 20.4 C 14.33 g/m*3 20.4 C 4.8 km/h
1677 05-07-2014 22:00:00 20.4 C 14.33 g/m*3 20.4 C 4.8 km/h
1678 05-07-2014 22:05:00 20.4 C 14.33 g/m*3 20.4 C 1.6 km/h
1679 05-07-2014 22:10:00 20.3 C 14.25 g/m*3 20.3 C 8.1 km/h
1680 05-07-2014 22:15:00 20.3 C 14.25 g/m*3 20.3 C 9.7 km/h
1681 05-07-2014 22:20:00 20.2 C 14.34 g/m*3 20.2 C 9.7 km/h
1682 05-07-2014 22:25:00 20.3 C 14.42 g/m*3 20.3 C 6.4 km/h
1683 05-07-2014 22:30:00 20.3 C 14.42 g/m*3 20.3 C 6.4 km/h
1684 05-07-2014 22:35:00 20.2 C 14.34 g/m*3 20.2 C 8.1 km/h
1685 05-07-2014 22:40:00 20.2 C 14.34 g/m*3 20.2 C 4.8 km/h
1686 05-07-2014 22:45:00 20.2 C 14.51 g/m*3 20.2 C 4.8 km/h
1687 05-07-2014 22:50:00 20.1 C 14.43 g/m*3 20.1 C 1.6 km/h
1688 05-07-2014 22:55:00 20.1 C 14.43 g/m*3 20.1 C 0 km/h
1689 05-07-2014 23:00:00 20 C 14.52 g/m*3 20 C 0 km/h
1690 05-07-2014 23:05:00 19.9 C 14.43 g/m*3 19.9 C 0 km/h
1691 05-07-2014 23:10:00 19.9 C 14.43 g/m*3 19.9 C 3.2 km/h
1692 05-07-2014 23:15:00 19.8 C 14.52 g/m*3 19.8 C 1.6 km/h
1693 05-07-2014 23:20:00 19.8 C 14.35 g/m*3 19.8 C 0 km/h
1694 05-07-2014 23:25:00 19.8 C 14.52 g/m*3 19.8 C 0 km/h
1695 05-07-2014 23:30:00 19.7 C 14.43 g/m*3 19.7 C 1.6 km/h
1696 05-07-2014 23:35:00 19.7 C 14.43 g/m*3 19.7 C 4.8 km/h
1697 05-07-2014 23:40:00 19.7 C 14.6 g/m*3 19.7 C 0 km/h
1698 05-07-2014 23:45:00 19.6 C 14.52 g/m*3 19.6 C 0 km/h
1699 05-07-2014 23:50:00 19.6 C 14.52 g/m*3 19.6 C 0 km/h
1700 05-07-2014 23:55:00 19.5 C 14.43 g/m*3 19.5 C 0 km/h

Legende:
   Min
   Max


Maximal/Minimal-Werte vom 30.06.2014 - 05.07.2014

Sensor Min Max Avg
Temp
(Aussen-T/F)
8.6 °C
02-07-2014  05:30:00
31.2 °C
03-07-2014  18:00:00
18.21 °C
Abs-Feuchte
(Aussen-T/F)
6.61 g/m*3
03-07-2014  18:35:00
15.57 g/m*3
05-07-2014  14:55:00
10.31 g/m*3
Windchill
(Aussen-T/F)
8.6 C
02-07-2014  05:30:00
31.2 C
03-07-2014  18:00:00
18.2 C

Die Daten stammen von einer Davis Vantage Pro 2 Wetter-Station und werden unter Linux mit der Software wview2wettercgi und aufbereitet. Alle Angaben erfolgen ohne Gewähr für ihre Vollständigkeit oder Richtigkeit.
Kontakt: Rainer Krienke krienke@uni-koblenz.de . Meine Webseiten an der Uni Koblenz oder privat.
Version: $Revision: 0.78 $